Observation data for Lake Alan Henry on 03/24/2019      Previous  Date  Next       Current Mesonet Observations  Soil Data  Daily Summary Page  Observations in Plain Language
KAHS 240500Z 23006KT 13/00 A2999 RMK A01 T012500-0  RH  042%=      5-min Rain = 0
KAHS 240501Z 23006KT 13/00 A2999 RMK A01 T012500-0  RH  042%=      5-min Rain = 0
KAHS 240502Z 23006KT 13/00 A2999 RMK A01 T012500-0  RH  042%=      5-min Rain = 0
KAHS 240503Z 23006KT 12/00 A2999 RMK A01 T012400-0  RH  042%=      5-min Rain = 0
KAHS 240504Z 23005KT 12/00 A2999 RMK A01 T01230000  RH  043%=      5-min Rain = 0
KAHS 240505Z 23005KT 12/00 A2999 RMK A01 T01230000  RH  043%=      5-min Rain = 0
KAHS 240506Z 23005KT 12/00 A2999 RMK A01 T01230000  RH  043%=      5-min Rain = 0
KAHS 240507Z 21005KT 12/00 A2999 RMK A01 T01240000  RH  043%=      5-min Rain = 0
KAHS 240508Z 19006KT 12/00 A2999 RMK A01 T01220001  RH  043%=      5-min Rain = 0
KAHS 240509Z 21006KT 12/00 A2999 RMK A01 T01180003  RH  045%=      5-min Rain = 0
KAHS 240510Z 21005KT 12/00 A2999 RMK A01 T01160004  RH  046%=      5-min Rain = 0
KAHS 240511Z 21005KT 12/00 A2999 RMK A01 T01170004  RH  046%=      5-min Rain = 0
KAHS 240512Z 21005KT 12/00 A2999 RMK A01 T01210002  RH  044%=      5-min Rain = 0
KAHS 240513Z 21006KT 12/00 A2999 RMK A01 T01210002  RH  044%=      5-min Rain = 0
KAHS 240514Z 19006KT 12/00 A2999 RMK A01 T01200002  RH  044%=      5-min Rain = 0
KAHS 240515Z 21005KT 12/00 A2999 RMK A01 T01180003  RH  045%=      5-min Rain = 0
KAHS 240516Z 21006KT 12/00 A2999 RMK A01 T01160003  RH  046%=      5-min Rain = 0
KAHS 240517Z 21006KT 12/00 A2999 RMK A01 T01160003  RH  046%=      5-min Rain = 0
KAHS 240518Z 21006KT 12/00 A2999 RMK A01 T01160003  RH  046%=      5-min Rain = 0
KAHS 240519Z 21006KT 12/00 A2999 RMK A01 T01180004  RH  046%=      5-min Rain = 0
KAHS 240520Z 21006KT 12/00 A2999 RMK A01 T01180004  RH  045%=      5-min Rain = 0
KAHS 240521Z 22006KT 12/00 A2999 RMK A01 T01190003  RH  045%=      5-min Rain = 0
KAHS 240522Z 22006KT 12/00 A2999 RMK A01 T01200003  RH  045%=      5-min Rain = 0
KAHS 240523Z 22006KT 12/00 A2999 RMK A01 T01210004  RH  045%=      5-min Rain = 0
KAHS 240524Z 22006KT 12/00 A2999 RMK A01 T01210004  RH  045%=      5-min Rain = 0
KAHS 240525Z 22006KT 12/01 A2999 RMK A01 T01210005  RH  045%=      5-min Rain = 0
KAHS 240526Z 22006KT 12/01 A2999 RMK A01 T01200005  RH  045%=      5-min Rain = 0
KAHS 240527Z 23006KT 12/01 A2998 RMK A01 T01200005  RH  045%=      5-min Rain = 0
KAHS 240528Z 23006KT 12/01 A2998 RMK A01 T01190005  RH  045%=      5-min Rain = 0
KAHS 240529Z 23006KT 12/01 A2998 RMK A01 T01190005  RH  045%=      5-min Rain = 0
KAHS 240530Z 22006KT 12/00 A2999 RMK A01 T01190004  RH  045%=      5-min Rain = 0
KAHS 240531Z 23006KT 12/00 A2998 RMK A01 T01200004  RH  045%=      5-min Rain = 0
KAHS 240532Z 23005KT 12/00 A2998 RMK A01 T01200004  RH  045%=      5-min Rain = 0
KAHS 240533Z 23005KT 12/00 A2998 RMK A01 T01210004  RH  045%=      5-min Rain = 0
KAHS 240534Z 22005KT 12/01 A2998 RMK A01 T01210005  RH  045%=      5-min Rain = 0
KAHS 240535Z 22005KT 12/01 A2998 RMK A01 T01220005  RH  045%=      5-min Rain = 0
KAHS 240536Z 22005KT 12/01 A2998 RMK A01 T01230005  RH  044%=      5-min Rain = 0
KAHS 240537Z 22005KT 12/01 A2998 RMK A01 T01240005  RH  044%=      5-min Rain = 0
KAHS 240538Z 23005KT 13/01 A2998 RMK A01 T01250005  RH  044%=      5-min Rain = 0
KAHS 240539Z 23005KT 13/01 A2998 RMK A01 T01250005  RH  044%=      5-min Rain = 0
KAHS 240540Z 23005KT 13/01 A2998 RMK A01 T01250005  RH  044%=      5-min Rain = 0
KAHS 240541Z 23005KT 13/01 A2998 RMK A01 T01260006  RH  044%=      5-min Rain = 0
KAHS 240542Z 23005KT 13/01 A2998 RMK A01 T01260006  RH  044%=      5-min Rain = 0
KAHS 240543Z 23005KT 13/01 A2998 RMK A01 T01250006  RH  044%=      5-min Rain = 0
KAHS 240544Z 23005KT 13/01 A2998 RMK A01 T01250006  RH  044%=      5-min Rain = 0
KAHS 240545Z 22005KT 13/01 A2998 RMK A01 T01250006  RH  044%=      5-min Rain = 0
KAHS 240546Z 22006KT 13/01 A2998 RMK A01 T01250006  RH  044%=      5-min Rain = 0
KAHS 240547Z 22006KT 12/01 A2998 RMK A01 T01240006  RH  044%=      5-min Rain = 0
KAHS 240548Z 22006KT 12/01 A2998 RMK A01 T01240006  RH  044%=      5-min Rain = 0
KAHS 240549Z 23006KT 12/01 A2998 RMK A01 T01240007  RH  045%=      5-min Rain = 0
KAHS 240550Z 23006KT 12/01 A2998 RMK A01 T01230007  RH  045%=      5-min Rain = 0
KAHS 240551Z 23006KT 12/01 A2998 RMK A01 T01230007  RH  045%=      5-min Rain = 0
KAHS 240552Z 22006KT 12/01 A2998 RMK A01 T01230007  RH  045%=      5-min Rain = 0
KAHS 240553Z 22006KT 12/01 A2998 RMK A01 T01220007  RH  045%=      5-min Rain = 0
KAHS 240554Z 22006KT 12/01 A2998 RMK A01 T01220007  RH  045%=      5-min Rain = 0
KAHS 240555Z 22006KT 12/01 A2998 RMK A01 T01210007  RH  046%=      5-min Rain = 0
KAHS 240556Z 22006KT 12/01 A2998 RMK A01 T01210007  RH  046%=      5-min Rain = 0
KAHS 240557Z 22006KT 12/01 A2998 RMK A01 T01200007  RH  046%=      5-min Rain = 0
KAHS 240558Z 22006KT 12/01 A2998 RMK A01 T01190008  RH  046%=      5-min Rain = 0
KAHS 240559Z 22006KT 12/01 A2998 RMK A01 T01190008  RH  046%=      5-min Rain = 0
KAHS 240600Z 22006KT 12/01 A2998 RMK A01 T01190008  RH  046%=      5-min Rain = 0
KAHS 240601Z 22006KT 12/01 A2998 RMK A01 T01190008  RH  046%=      5-min Rain = 0
KAHS 240602Z 22006KT 12/01 A2998 RMK A01 T01200008  RH  046%=      5-min Rain = 0
KAHS 240603Z 22006KT 12/01 A2998 RMK A01 T01190008  RH  046%=      5-min Rain = 0
KAHS 240604Z 22006KT 12/01 A2999 RMK A01 T01190008  RH  046%=      5-min Rain = 0
KAHS 240605Z 22006KT 12/01 A2998 RMK A01 T01190007  RH  046%=      5-min Rain = 0
KAHS 240606Z 22006KT 12/01 A2999 RMK A01 T01180007  RH  046%=      5-min Rain = 0
KAHS 240607Z 22006KT 12/01 A2999 RMK A01 T01180007  RH  047%=      5-min Rain = 0
KAHS 240608Z 23006KT 12/01 A2999 RMK A01 T01170007  RH  047%=      5-min Rain = 0
KAHS 240609Z 23006KT 12/01 A2999 RMK A01 T01160007  RH  047%=      5-min Rain = 0
KAHS 240610Z 23006KT 12/01 A2999 RMK A01 T01150008  RH  048%=      5-min Rain = 0
KAHS 240611Z 23006KT 12/01 A2999 RMK A01 T01150008  RH  048%=      5-min Rain = 0
KAHS 240612Z 23006KT 12/01 A2999 RMK A01 T01150007  RH  048%=      5-min Rain = 0
KAHS 240613Z 24005KT 12/01 A2999 RMK A01 T01150007  RH  047%=      5-min Rain = 0
KAHS 240614Z 24005KT 12/01 A2999 RMK A01 T01150007  RH  047%=      5-min Rain = 0
KAHS 240615Z 24006KT 12/01 A2999 RMK A01 T01150007  RH  048%=      5-min Rain = 0
KAHS 240616Z 24006KT 11/01 A2999 RMK A01 T01140007  RH  048%=      5-min Rain = 0
KAHS 240617Z 24005KT 11/01 A2999 RMK A01 T01140007  RH  048%=      5-min Rain = 0
KAHS 240618Z 24005KT 12/01 A2998 RMK A01 T01150007  RH  047%=      5-min Rain = 0
KAHS 240619Z 24005KT 12/01 A2998 RMK A01 T01150007  RH  047%=      5-min Rain = 0
KAHS 240620Z 24005KT 12/01 A2998 RMK A01 T01150007  RH  047%=      5-min Rain = 0
KAHS 240621Z 24005KT 12/01 A2998 RMK A01 T01160007  RH  047%=      5-min Rain = 0
KAHS 240622Z 23005KT 12/01 A2998 RMK A01 T01160007  RH  047%=      5-min Rain = 0
KAHS 240623Z 25006KT 12/01 A2998 RMK A01 T01150007  RH  047%=      5-min Rain = 0
KAHS 240624Z 24006KT 12/01 A2998 RMK A01 T01150007  RH  047%=      5-min Rain = 0
KAHS 240625Z 25006KT 11/01 A2998 RMK A01 T01140007  RH  047%=      5-min Rain = 0
KAHS 240626Z 25006KT 11/01 A2998 RMK A01 T01140006  RH  048%=      5-min Rain = 0
KAHS 240627Z 24006KT 11/01 A2998 RMK A01 T01130006  RH  048%=      5-min Rain = 0
KAHS 240628Z 24006KT 11/01 A2998 RMK A01 T01120006  RH  048%=      5-min Rain = 0
KAHS 240629Z 25006KT 11/01 A2998 RMK A01 T01120006  RH  048%=      5-min Rain = 0
KAHS 240630Z 25006KT 11/01 A2998 RMK A01 T01120006  RH  048%=      5-min Rain = 0
KAHS 240631Z 25006KT 11/01 A2998 RMK A01 T01120006  RH  048%=      5-min Rain = 0
KAHS 240632Z 24006KT 11/01 A2998 RMK A01 T01120006  RH  048%=      5-min Rain = 0
KAHS 240633Z 24006KT 11/01 A2998 RMK A01 T01110006  RH  048%=      5-min Rain = 0
KAHS 240634Z 24006KT 11/01 A2998 RMK A01 T01110006  RH  048%=      5-min Rain = 0
KAHS 240635Z 23006KT 11/01 A2998 RMK A01 T01110006  RH  048%=      5-min Rain = 0
KAHS 240636Z 23006KT 11/01 A2998 RMK A01 T01110005  RH  048%=      5-min Rain = 0
KAHS 240637Z 23006KT 11/01 A2998 RMK A01 T01110005  RH  048%=      5-min Rain = 0
KAHS 240638Z 23006KT 11/01 A2998 RMK A01 T01110005  RH  048%=      5-min Rain = 0
KAHS 240639Z 24006KT 11/01 A2998 RMK A01 T01110005  RH  048%=      5-min Rain = 0
KAHS 240640Z 24006KT 11/00 A2998 RMK A01 T01110004  RH  048%=      5-min Rain = 0
KAHS 240641Z 23006KT 11/01 A2998 RMK A01 T01110005  RH  048%=      5-min Rain = 0
KAHS 240642Z 23006KT 11/00 A2998 RMK A01 T01110004  RH  048%=      5-min Rain = 0
KAHS 240643Z 23006KT 11/00 A2998 RMK A01 T01120004  RH  047%=      5-min Rain = 0
KAHS 240644Z 23006KT 11/00 A2998 RMK A01 T01140003  RH  046%=      5-min Rain = 0
KAHS 240645Z 23006KT 12/00 A2998 RMK A01 T01160003  RH  046%=      5-min Rain = 0
KAHS 240646Z 23006KT 12/00 A2998 RMK A01 T01170002  RH  045%=      5-min Rain = 0
KAHS 240647Z 23006KT 12/00 A2998 RMK A01 T01170002  RH  045%=      5-min Rain = 0
KAHS 240648Z 24006KT 12/00 A2998 RMK A01 T01180002  RH  045%=      5-min Rain = 0
KAHS 240649Z 24006KT 12/00 A2998 RMK A01 T01170002  RH  045%=      5-min Rain = 0
KAHS 240650Z 24007KT 12/00 A2998 RMK A01 T01180001  RH  045%=      5-min Rain = 0
KAHS 240651Z 23007KT 12/00 A2997 RMK A01 T01190001  RH  044%=      5-min Rain = 0
KAHS 240652Z 23007KT 12/00 A2997 RMK A01 T01200002  RH  044%=      5-min Rain = 0
KAHS 240653Z 23006KT 12/00 A2997 RMK A01 T01210002  RH  044%=      5-min Rain = 0
KAHS 240654Z 23006KT 12/00 A2997 RMK A01 T01210002  RH  044%=      5-min Rain = 0
KAHS 240655Z 23006KT 12/00 A2997 RMK A01 T01220003  RH  044%=      5-min Rain = 0
KAHS 240656Z 23006KT 12/00 A2997 RMK A01 T01230003  RH  044%=      5-min Rain = 0
KAHS 240657Z 23006KT 12/00 A2997 RMK A01 T01220003  RH  044%=      5-min Rain = 0
KAHS 240658Z 23006KT 12/00 A2997 RMK A01 T01220003  RH  044%=      5-min Rain = 0
KAHS 240659Z 24006KT 12/00 A2997 RMK A01 T01210004  RH  045%=      5-min Rain = 0
KAHS 240700Z 24006KT 12/00 A2997 RMK A01 T01200004  RH  045%=      5-min Rain = 0
KAHS 240701Z 24006KT 12/00 A2997 RMK A01 T01190004  RH  045%=      5-min Rain = 0
KAHS 240702Z 24005KT 12/00 A2997 RMK A01 T01180004  RH  045%=      5-min Rain = 0
KAHS 240703Z 24006KT 12/00 A2997 RMK A01 T01180004  RH  045%=      5-min Rain = 0
KAHS 240704Z 24005KT 12/00 A2997 RMK A01 T01180004  RH  045%=      5-min Rain = 0
KAHS 240705Z 24006KT 12/00 A2997 RMK A01 T01180004  RH  045%=      5-min Rain = 0
KAHS 240706Z 24006KT 12/00 A2997 RMK A01 T01170004  RH  046%=      5-min Rain = 0
KAHS 240707Z 24006KT 12/00 A2997 RMK A01 T01160004  RH  046%=      5-min Rain = 0
KAHS 240708Z 24005KT 12/00 A2997 RMK A01 T01150004  RH  046%=      5-min Rain = 0
KAHS 240709Z 24005KT 12/00 A2997 RMK A01 T01150004  RH  046%=      5-min Rain = 0
KAHS 240710Z 24005KT 11/00 A2997 RMK A01 T01140004  RH  047%=      5-min Rain = 0
KAHS 240711Z 24006KT 11/00 A2997 RMK A01 T01140003  RH  047%=      5-min Rain = 0
KAHS 240712Z 24006KT 11/00 A2997 RMK A01 T01140003  RH  047%=      5-min Rain = 0
KAHS 240713Z 24006KT 11/00 A2997 RMK A01 T01130003  RH  047%=      5-min Rain = 0
KAHS 240714Z 24006KT 11/00 A2997 RMK A01 T01130003  RH  047%=      5-min Rain = 0
KAHS 240715Z 24006KT 11/00 A2997 RMK A01 T01130003  RH  047%=      5-min Rain = 0
KAHS 240716Z 24006KT 11/00 A2997 RMK A01 T01120002  RH  047%=      5-min Rain = 0
KAHS 240717Z 24006KT 11/00 A2997 RMK A01 T01120002  RH  047%=      5-min Rain = 0
KAHS 240718Z 24006KT 11/00 A2997 RMK A01 T01120002  RH  047%=      5-min Rain = 0
KAHS 240719Z 24006KT 11/00 A2997 RMK A01 T01120002  RH  047%=      5-min Rain = 0
KAHS 240720Z 24006KT 11/00 A2997 RMK A01 T01130002  RH  047%=      5-min Rain = 0
KAHS 240721Z 24006KT 11/00 A2997 RMK A01 T01130002  RH  046%=      5-min Rain = 0
KAHS 240722Z 24006KT 11/00 A2997 RMK A01 T01130002  RH  046%=      5-min Rain = 0
KAHS 240723Z 24006KT 11/00 A2997 RMK A01 T01140002  RH  046%=      5-min Rain = 0
KAHS 240724Z 24006KT 11/00 A2997 RMK A01 T01130002  RH  046%=      5-min Rain = 0
KAHS 240725Z 24006KT 11/00 A2997 RMK A01 T01130002  RH  046%=      5-min Rain = 0
KAHS 240726Z 24006KT 11/00 A2997 RMK A01 T01130002  RH  046%=      5-min Rain = 0
KAHS 240727Z 24006KT 11/00 A2997 RMK A01 T01130002  RH  046%=      5-min Rain = 0
KAHS 240728Z 24005KT 11/00 A2997 RMK A01 T01140002  RH  046%=      5-min Rain = 0
KAHS 240729Z 24005KT 11/00 A2997 RMK A01 T01140001  RH  046%=      5-min Rain = 0
KAHS 240730Z 23005KT 11/00 A2997 RMK A01 T01140002  RH  046%=      5-min Rain = 0
KAHS 240731Z 23004KT 11/00 A2997 RMK A01 T01140001  RH  046%=      5-min Rain = 0
KAHS 240732Z 22004KT 11/00 A2997 RMK A01 T01140001  RH  046%=      5-min Rain = 0
KAHS 240733Z 22004KT 11/00 A2997 RMK A01 T01130001  RH  046%=      5-min Rain = 0
KAHS 240734Z 22004KT 11/00 A2997 RMK A01 T01120002  RH  046%=      5-min Rain = 0
KAHS 240735Z 22004KT 11/00 A2997 RMK A01 T01120002  RH  047%=      5-min Rain = 0
KAHS 240736Z 23005KT 11/00 A2997 RMK A01 T01110002  RH  047%=      5-min Rain = 0
KAHS 240737Z 23005KT 11/00 A2997 RMK A01 T01100003  RH  048%=      5-min Rain = 0
KAHS 240738Z 23005KT 11/00 A2997 RMK A01 T01090003  RH  048%=      5-min Rain = 0
KAHS 240739Z 23005KT 11/00 A2997 RMK A01 T01080004  RH  049%=      5-min Rain = 0
KAHS 240740Z 24005KT 11/00 A2997 RMK A01 T01070004  RH  049%=      5-min Rain = 0
KAHS 240741Z 24005KT 11/00 A2997 RMK A01 T01060004  RH  049%=      5-min Rain = 0
KAHS 240742Z 24005KT 11/00 A2998 RMK A01 T01060004  RH  049%=      5-min Rain = 0
KAHS 240743Z 23006KT 10/00 A2998 RMK A01 T01040004  RH  050%=      5-min Rain = 0
KAHS 240744Z 22006KT 10/01 A2998 RMK A01 T01040005  RH  050%=      5-min Rain = 0
KAHS 240745Z 19008KT 10/01 A2998 RMK A01 T01020006  RH  051%=      5-min Rain = 0
KAHS 240746Z 17011KT 10/01 A2999 RMK A01 T00980009  RH  054%=      5-min Rain = 0
KAHS 240747Z 18007KT 10/02 A2998 RMK A01 T00950015  RH  057%=      5-min Rain = 0
KAHS 240748Z 21006KT 09/02 A2998 RMK A01 T00940019  RH  059%=      5-min Rain = 0
KAHS 240749Z 22007KT 10/02 A2998 RMK A01 T00950019  RH  059%=      5-min Rain = 0
KAHS 240750Z 20007KT 10/02 A2998 RMK A01 T00950019  RH  059%=      5-min Rain = 0
KAHS 240751Z 18007KT 09/02 A2999 RMK A01 T00930020  RH  060%=      5-min Rain = 0
KAHS 240752Z 21008KT 09/02 A2998 RMK A01 T00920022  RH  061%=      5-min Rain = 0
KAHS 240753Z 22008KT 09/02 A2998 RMK A01 T00920022  RH  062%=      5-min Rain = 0
KAHS 240754Z 22008KT 09/02 A2998 RMK A01 T00940022  RH  061%=      5-min Rain = 0
KAHS 240755Z 21008KT 09/02 A2998 RMK A01 T00940023  RH  061%=      5-min Rain = 0
KAHS 240756Z 22009KT 10/02 A2998 RMK A01 T00950024  RH  061%=      5-min Rain = 0
KAHS 240757Z 24009KT 10/03 A2998 RMK A01 T00960025  RH  061%=      5-min Rain = 0
KAHS 240758Z 24009KT 10/03 A2998 RMK A01 T00970025  RH  061%=      5-min Rain = 0
KAHS 240759Z 24009KT 10/02 A2997 RMK A01 T00970024  RH  060%=      5-min Rain = 0
KAHS 240800Z 24008KT 10/02 A2997 RMK A01 T00980023  RH  059%=      5-min Rain = 0
KAHS 240801Z 24007KT 10/02 A2998 RMK A01 T00980021  RH  059%=      5-min Rain = 0
KAHS 240802Z 23006KT 10/02 A2998 RMK A01 T00980021  RH  059%=      5-min Rain = 0
KAHS 240803Z 25006KT 10/02 A2998 RMK A01 T00980020  RH  058%=      5-min Rain = 0
KAHS 240804Z 27007KT 10/02 A2998 RMK A01 T00970019  RH  058%=      5-min Rain = 0
KAHS 240805Z 26006KT 10/02 A2998 RMK A01 T00950019  RH  059%=      5-min Rain = 0
KAHS 240806Z 25006KT 09/02 A2998 RMK A01 T00930019  RH  060%=      5-min Rain = 0
KAHS 240807Z 24006KT 09/02 A2998 RMK A01 T00910019  RH  061%=      5-min Rain = 0
KAHS 240808Z 24006KT 09/02 A2998 RMK A01 T00900019  RH  061%=      5-min Rain = 0
KAHS 240809Z 26005KT 09/02 A2998 RMK A01 T00900019  RH  061%=      5-min Rain = 0
KAHS 240810Z 26006KT 09/02 A2998 RMK A01 T00890019  RH  061%=      5-min Rain = 0
KAHS 240811Z 27007KT 09/02 A2998 RMK A01 T00890018  RH  061%=      5-min Rain = 0
KAHS 240812Z 27007KT 09/02 A2998 RMK A01 T00890017  RH  061%=      5-min Rain = 0
KAHS 240813Z 27008KT 09/02 A2998 RMK A01 T00890016  RH  060%=      5-min Rain = 0
KAHS 240814Z 27007KT 09/02 A2997 RMK A01 T00890016  RH  060%=      5-min Rain = 0
KAHS 240815Z 27007KT 09/02 A2998 RMK A01 T00890015  RH  060%=      5-min Rain = 0
KAHS 240816Z 26007KT 09/02 A2998 RMK A01 T00890015  RH  059%=      5-min Rain = 0
KAHS 240817Z 26007KT 09/02 A2998 RMK A01 T00900015  RH  059%=      5-min Rain = 0
KAHS 240818Z 26006KT 09/01 A2998 RMK A01 T00910014  RH  059%=      5-min Rain = 0
KAHS 240819Z 25006KT 09/01 A2998 RMK A01 T00910013  RH  058%=      5-min Rain = 0
KAHS 240820Z 25006KT 09/01 A2998 RMK A01 T00920013  RH  057%=      5-min Rain = 0
KAHS 240821Z 25006KT 09/01 A2998 RMK A01 T00930012  RH  057%=      5-min Rain = 0
KAHS 240822Z 25006KT 10/01 A2998 RMK A01 T00950011  RH  056%=      5-min Rain = 0
KAHS 240823Z 25005KT 10/01 A2998 RMK A01 T00960011  RH  055%=      5-min Rain = 0
KAHS 240824Z 25005KT 10/01 A2998 RMK A01 T00950011  RH  056%=      5-min Rain = 0
KAHS 240825Z 24004KT 10/01 A2998 RMK A01 T00950011  RH  056%=      5-min Rain = 0
KAHS 240826Z 23004KT 09/01 A2998 RMK A01 T00940011  RH  056%=      5-min Rain = 0
KAHS 240827Z 23005KT 09/01 A2998 RMK A01 T00930012  RH  057%=      5-min Rain = 0
KAHS 240828Z 23005KT 10/01 A2998 RMK A01 T00950011  RH  056%=      5-min Rain = 0
KAHS 240829Z 23005KT 10/01 A2998 RMK A01 T00970009  RH  054%=      5-min Rain = 0
KAHS 240830Z 23006KT 10/01 A2998 RMK A01 T00990006  RH  052%=      5-min Rain = 0
KAHS 240831Z 23006KT 10/00 A2998 RMK A01 T01020004  RH  051%=      5-min Rain = 0
KAHS 240832Z 23006KT 10/00 A2998 RMK A01 T01040003  RH  050%=      5-min Rain = 0
KAHS 240833Z 24007KT 10/00 A2998 RMK A01 T01040002  RH  049%=      5-min Rain = 0
KAHS 240834Z 23006KT 11/00 A2998 RMK A01 T01050001  RH  048%=      5-min Rain = 0
KAHS 240835Z 23006KT 11/00 A2998 RMK A01 T010600-0  RH  048%=      5-min Rain = 0
KAHS 240836Z 23006KT 11/M00 A2998 RMK A01 T01061001  RH  047%=      5-min Rain = 0
KAHS 240837Z 23006KT 11/M00 A2998 RMK A01 T01061001  RH  047%=      5-min Rain = 0
KAHS 240838Z 23006KT 11/M00 A2998 RMK A01 T01051001  RH  048%=      5-min Rain = 0
KAHS 240839Z 23006KT 10/00 A2998 RMK A01 T010400-0  RH  048%=      5-min Rain = 0
KAHS 240840Z 23006KT 10/00 A2998 RMK A01 T01030000  RH  049%=      5-min Rain = 0
KAHS 240841Z 22006KT 10/00 A2998 RMK A01 T010400-0  RH  049%=      5-min Rain = 0
KAHS 240842Z 22005KT 10/M00 A2998 RMK A01 T01041001  RH  048%=      5-min Rain = 0
KAHS 240843Z 22006KT 11/M00 A2998 RMK A01 T01051002  RH  047%=      5-min Rain = 0
KAHS 240844Z 22006KT 11/M00 A2998 RMK A01 T01061002  RH  047%=      5-min Rain = 0
KAHS 240845Z 22006KT 11/M00 A2998 RMK A01 T01061002  RH  047%=      5-min Rain = 0
KAHS 240846Z 21006KT 11/M00 A2998 RMK A01 T01061002  RH  047%=      5-min Rain = 0
KAHS 240847Z 22006KT 11/M00 A2998 RMK A01 T01051002  RH  047%=      5-min Rain = 0
KAHS 240848Z 22005KT 10/M00 A2998 RMK A01 T01041002  RH  048%=      5-min Rain = 0
KAHS 240849Z 21006KT 10/M00 A2998 RMK A01 T01041002  RH  048%=      5-min Rain = 0
KAHS 240850Z 22005KT 10/M00 A2998 RMK A01 T01041002  RH  048%=      5-min Rain = 0
KAHS 240851Z 22006KT 10/M00 A2998 RMK A01 T01041002  RH  048%=      5-min Rain = 0
KAHS 240852Z 22006KT 10/M00 A2998 RMK A01 T01041002  RH  048%=      5-min Rain = 0
KAHS 240853Z 22005KT 10/M00 A2998 RMK A01 T01031002  RH  048%=      5-min Rain = 0
KAHS 240854Z 23006KT 10/M00 A2998 RMK A01 T01021002  RH  049%=      5-min Rain = 0
KAHS 240855Z 22006KT 10/M00 A2998 RMK A01 T01031002  RH  048%=      5-min Rain = 0
KAHS 240856Z 22006KT 10/M00 A2998 RMK A01 T01041002  RH  048%=      5-min Rain = 0
KAHS 240857Z 23006KT 10/M00 A2998 RMK A01 T01041003  RH  047%=      5-min Rain = 0
KAHS 240858Z 23006KT 11/M00 A2998 RMK A01 T01051003  RH  047%=      5-min Rain = 0
KAHS 240859Z 24006KT 10/M00 A2998 RMK A01 T01041002  RH  048%=      5-min Rain = 0
KAHS 240900Z 24006KT 10/M00 A2998 RMK A01 T01021002  RH  048%=      5-min Rain = 0
KAHS 240901Z 24007KT 10/M00 A2998 RMK A01 T00991002  RH  049%=      5-min Rain = 0
KAHS 240902Z 24007KT 10/M00 A2998 RMK A01 T00981001  RH  050%=      5-min Rain = 0
KAHS 240903Z 24006KT 10/M00 A2998 RMK A01 T00981001  RH  050%=      5-min Rain = 0
KAHS 240904Z 23006KT 10/M00 A2998 RMK A01 T00981002  RH  050%=      5-min Rain = 0
KAHS 240905Z 23006KT 10/M00 A2998 RMK A01 T00971001  RH  050%=      5-min Rain = 0
KAHS 240906Z 24006KT 10/M00 A2998 RMK A01 T00961001  RH  051%=      5-min Rain = 0
KAHS 240907Z 24006KT 10/M00 A2998 RMK A01 T00961001  RH  051%=      5-min Rain = 0
KAHS 240908Z 24007KT 10/00 A2998 RMK A01 T009500-0  RH  051%=      5-min Rain = 0
KAHS 240909Z 23007KT 10/00 A2998 RMK A01 T009500-0  RH  051%=      5-min Rain = 0
KAHS 240910Z 23007KT 09/00 A2998 RMK A01 T009400-0  RH  052%=      5-min Rain = 0
KAHS 240911Z 23007KT 09/00 A2998 RMK A01 T00940001  RH  052%=      5-min Rain = 0
KAHS 240912Z 23007KT 09/00 A2998 RMK A01 T00940001  RH  052%=      5-min Rain = 0
KAHS 240913Z 24008KT 10/00 A2998 RMK A01 T00950002  RH  052%=      5-min Rain = 0
KAHS 240914Z 23008KT 10/00 A2998 RMK A01 T00960002  RH  052%=      5-min Rain = 0
KAHS 240915Z 23008KT 10/00 A2998 RMK A01 T00960003  RH  052%=      5-min Rain = 0
KAHS 240916Z 23009KT 10/00 A2998 RMK A01 T00970003  RH  052%=      5-min Rain = 0
KAHS 240917Z 23009KT 10/00 A2998 RMK A01 T00990004  RH  052%=      5-min Rain = 0
KAHS 240918Z 23008KT 10/01 A2998 RMK A01 T01010005  RH  051%=      5-min Rain = 0
KAHS 240919Z 23008KT 10/01 A2998 RMK A01 T01020006  RH  051%=      5-min Rain = 0
KAHS 240920Z 23008KT 10/01 A2998 RMK A01 T01030007  RH  051%=      5-min Rain = 0
KAHS 240921Z 23008KT 10/01 A2998 RMK A01 T01040008  RH  051%=      5-min Rain = 0
KAHS 240922Z 24007KT 11/01 A2998 RMK A01 T01050008  RH  051%=      5-min Rain = 0
KAHS 240923Z 23007KT 10/01 A2998 RMK A01 T01040009  RH  052%=      5-min Rain = 0
KAHS 240924Z 24006KT 10/01 A2998 RMK A01 T01030009  RH  052%=      5-min Rain = 0
KAHS 240925Z 24007KT 10/01 A2998 RMK A01 T01020009  RH  052%=      5-min Rain = 0
KAHS 240926Z 24007KT 10/01 A2998 RMK A01 T01020009  RH  052%=      5-min Rain = 0
KAHS 240927Z 24007KT 10/01 A2998 RMK A01 T01020009  RH  052%=      5-min Rain = 0
KAHS 240928Z 24007KT 10/01 A2998 RMK A01 T01030008  RH  052%=      5-min Rain = 0
KAHS 240929Z 24006KT 10/01 A2998 RMK A01 T01020008  RH  052%=      5-min Rain = 0
KAHS 240930Z 24007KT 10/01 A2998 RMK A01 T01020009  RH  052%=      5-min Rain = 0
KAHS 240931Z 24007KT 10/01 A2998 RMK A01 T01010008  RH  053%=      5-min Rain = 0
KAHS 240932Z 24007KT 10/01 A2998 RMK A01 T01010008  RH  053%=      5-min Rain = 0
KAHS 240933Z 24008KT 10/01 A2998 RMK A01 T01000008  RH  053%=      5-min Rain = 0
KAHS 240934Z 24008KT 10/01 A2998 RMK A01 T01000009  RH  053%=      5-min Rain = 0
KAHS 240935Z 24009KT 10/01 A2998 RMK A01 T01000009  RH  053%=      5-min Rain = 0
KAHS 240936Z 24008KT 10/01 A2998 RMK A01 T01000009  RH  053%=      5-min Rain = 0
KAHS 240937Z 24008KT 10/01 A2998 RMK A01 T01010010  RH  053%=      5-min Rain = 0
KAHS 240938Z 24009KT 10/01 A2998 RMK A01 T01010010  RH  053%=      5-min Rain = 0
KAHS 240939Z 24008KT 10/01 A2998 RMK A01 T01010010  RH  053%=      5-min Rain = 0
KAHS 240940Z 24008KT 10/01 A2998 RMK A01 T01010010  RH  053%=      5-min Rain = 0
KAHS 240941Z 24008KT 10/01 A2998 RMK A01 T01010010  RH  053%=      5-min Rain = 0
KAHS 240942Z 24008KT 10/01 A2998 RMK A01 T01010010  RH  053%=      5-min Rain = 0
KAHS 240943Z 24008KT 10/01 A2998 RMK A01 T01010011  RH  054%=      5-min Rain = 0
KAHS 240944Z 24009KT 10/01 A2998 RMK A01 T01010011  RH  054%=      5-min Rain = 0
KAHS 240945Z 24009KT 10/01 A2998 RMK A01 T01010012  RH  054%=      5-min Rain = 0
KAHS 240946Z 24009KT 10/01 A2998 RMK A01 T01010013  RH  054%=      5-min Rain = 0
KAHS 240947Z 24009KT 10/01 A2998 RMK A01 T01020014  RH  054%=      5-min Rain = 0
KAHS 240948Z 24009KT 10/02 A2998 RMK A01 T01030016  RH  054%=      5-min Rain = 0
KAHS 240949Z 24009KT 10/02 A2998 RMK A01 T01040017  RH  055%=      5-min Rain = 0
KAHS 240950Z 24009KT 11/02 A2998 RMK A01 T01050018  RH  055%=      5-min Rain = 0
KAHS 240951Z 24009KT 11/02 A2998 RMK A01 T01060020  RH  056%=      5-min Rain = 0
KAHS 240952Z 24009KT 11/02 A2998 RMK A01 T01070022  RH  056%=      5-min Rain = 0
KAHS 240953Z 24009KT 11/02 A2998 RMK A01 T01070023  RH  056%=      5-min Rain = 0
KAHS 240954Z 24009KT 11/02 A2998 RMK A01 T01070024  RH  056%=      5-min Rain = 0
KAHS 240955Z 24009KT 11/03 A2998 RMK A01 T01080026  RH  057%=      5-min Rain = 0
KAHS 240956Z 24009KT 11/03 A2998 RMK A01 T01090027  RH  057%=      5-min Rain = 0
KAHS 240957Z 24009KT 11/03 A2998 RMK A01 T01100027  RH  057%=      5-min Rain = 0
KAHS 240958Z 24009KT 11/03 A2998 RMK A01 T01100029  RH  057%=      5-min Rain = 0
KAHS 240959Z 24009KT 11/03 A2998 RMK A01 T01110030  RH  057%=      5-min Rain = 0
KAHS 241000Z 24009KT 11/03 A2998 RMK A01 T01120031  RH  057%=      5-min Rain = 0
KAHS 241001Z 24009KT 11/03 A2998 RMK A01 T01130032  RH  057%=      5-min Rain = 0
KAHS 241002Z 24009KT 11/03 A2998 RMK A01 T01140033  RH  058%=      5-min Rain = 0
KAHS 241003Z 24009KT 12/04 A2998 RMK A01 T01150035  RH  058%=      5-min Rain = 0
KAHS 241004Z 24009KT 12/04 A2998 RMK A01 T01160036  RH  058%=      5-min Rain = 0
KAHS 241005Z 24009KT 12/04 A2998 RMK A01 T01150036  RH  058%=      5-min Rain = 0
KAHS 241006Z 24009KT 12/04 A2998 RMK A01 T01160037  RH  059%=      5-min Rain = 0
KAHS 241007Z 24009KT 12/04 A2998 RMK A01 T01160038  RH  059%=      5-min Rain = 0
KAHS 241008Z 24009KT 12/04 A2998 RMK A01 T01170039  RH  059%=      5-min Rain = 0
KAHS 241009Z 24009KT 12/04 A2998 RMK A01 T01170040  RH  059%=      5-min Rain = 0
KAHS 241010Z 24009KT 12/04 A2998 RMK A01 T01180041  RH  059%=      5-min Rain = 0
KAHS 241011Z 24009KT 12/04 A2998 RMK A01 T01180042  RH  059%=      5-min Rain = 0
KAHS 241012Z 24009KT 12/04 A2998 RMK A01 T01180042  RH  060%=      5-min Rain = 0
KAHS 241013Z 24009KT 12/04 A2998 RMK A01 T01180042  RH  060%=      5-min Rain = 0
KAHS 241014Z 24009KT 12/04 A2998 RMK A01 T01180043  RH  060%=      5-min Rain = 0
KAHS 241015Z 24009KT 12/04 A2998 RMK A01 T01180043  RH  060%=      5-min Rain = 0
KAHS 241016Z 24009KT 12/04 A2998 RMK A01 T01180044  RH  060%=      5-min Rain = 0
KAHS 241017Z 24009KT 12/05 A2998 RMK A01 T01190045  RH  061%=      5-min Rain = 0
KAHS 241018Z 24009KT 12/05 A2998 RMK A01 T01190045  RH  060%=      5-min Rain = 0
KAHS 241019Z 24009KT 12/05 A2998 RMK A01 T01190045  RH  060%=      5-min Rain = 0
KAHS 241020Z 24009KT 12/05 A2998 RMK A01 T01190046  RH  061%=      5-min Rain = 0
KAHS 241021Z 24008KT 12/05 A2998 RMK A01 T01190046  RH  061%=      5-min Rain = 0
KAHS 241022Z 24008KT 12/05 A2998 RMK A01 T01180047  RH  061%=      5-min Rain = 0
KAHS 241023Z 24009KT 12/05 A2998 RMK A01 T01190048  RH  062%=      5-min Rain = 0
KAHS 241024Z 23008KT 12/05 A2998 RMK A01 T01190049  RH  062%=      5-min Rain = 0
KAHS 241025Z 24009KT 12/05 A2998 RMK A01 T01190049  RH  062%=      5-min Rain = 0
KAHS 241026Z 24009KT 12/05 A2998 RMK A01 T01200051  RH  063%=      5-min Rain = 0
KAHS 241027Z 24009KT 12/05 A2998 RMK A01 T01210052  RH  063%=      5-min Rain = 0
KAHS 241028Z 24009KT 12/05 A2998 RMK A01 T01210053  RH  063%=      5-min Rain = 0
KAHS 241029Z 24009KT 12/05 A2998 RMK A01 T01220054  RH  063%=      5-min Rain = 0
KAHS 241030Z 24009KT 12/06 A2998 RMK A01 T01230055  RH  064%=      5-min Rain = 0
KAHS 241031Z 24009KT 12/06 A2998 RMK A01 T01230056  RH  064%=      5-min Rain = 0
KAHS 241032Z 24008KT 12/06 A2998 RMK A01 T01230057  RH  064%=      5-min Rain = 0
KAHS 241033Z 24009KT 12/06 A2998 RMK A01 T01220057  RH  064%=      5-min Rain = 0
KAHS 241034Z 24009KT 12/06 A2998 RMK A01 T01220058  RH  065%=      5-min Rain = 0
KAHS 241035Z 24008KT 12/06 A2998 RMK A01 T01230059  RH  065%=      5-min Rain = 0
KAHS 241036Z 24008KT 12/06 A2998 RMK A01 T01230059  RH  065%=      5-min Rain = 0
KAHS 241037Z 25009KT 12/06 A2998 RMK A01 T01230060  RH  066%=      5-min Rain = 0
KAHS 241038Z 24008KT 12/06 A2998 RMK A01 T01240062  RH  066%=      5-min Rain = 0
KAHS 241039Z 24008KT 12/06 A2998 RMK A01 T01240063  RH  066%=      5-min Rain = 0
KAHS 241040Z 24008KT 12/06 A2998 RMK A01 T01240063  RH  066%=      5-min Rain = 0
KAHS 241041Z 25009KT 12/06 A2998 RMK A01 T01240064  RH  067%=      5-min Rain = 0
KAHS 241042Z 24009KT 13/07 A2998 RMK A01 T01250066  RH  067%=      5-min Rain = 0
KAHS 241043Z 24009KT 13/07 A2998 RMK A01 T01260066  RH  067%=      5-min Rain = 0
KAHS 241044Z 24009KT 13/07 A2998 RMK A01 T01270067  RH  067%=      5-min Rain = 0
KAHS 241045Z 24008KT 13/07 A2998 RMK A01 T01270067  RH  067%=      5-min Rain = 0
KAHS 241046Z 25009KT 13/07 A2998 RMK A01 T01270067  RH  067%=      5-min Rain = 0
KAHS 241047Z 25008KT 13/07 A2998 RMK A01 T01270068  RH  067%=      5-min Rain = 0
KAHS 241048Z 25008KT 13/07 A2999 RMK A01 T01260068  RH  068%=      5-min Rain = 0
KAHS 241049Z 25009KT 13/07 A2999 RMK A01 T01250068  RH  068%=      5-min Rain = 0
KAHS 241050Z 25008KT 13/07 A2999 RMK A01 T01250067  RH  068%=      5-min Rain = 0
KAHS 241051Z 25009KT 13/07 A2999 RMK A01 T01260067  RH  068%=      5-min Rain = 0
KAHS 241052Z 25009KT 13/07 A2999 RMK A01 T01260067  RH  067%=      5-min Rain = 0
KAHS 241053Z 25008KT 13/07 A2999 RMK A01 T01260066  RH  067%=      5-min Rain = 0
KAHS 241054Z 25008KT 13/07 A2999 RMK A01 T01250065  RH  067%=      5-min Rain = 0
KAHS 241055Z 25008KT 12/06 A2999 RMK A01 T01230064  RH  067%=      5-min Rain = 0
KAHS 241056Z 25009KT 12/06 A2999 RMK A01 T01220063  RH  067%=      5-min Rain = 0
KAHS 241057Z 25009KT 12/06 A2999 RMK A01 T01220063  RH  067%=      5-min Rain = 0
KAHS 241058Z 25009KT 12/06 A2999 RMK A01 T01210064  RH  068%=      5-min Rain = 0
KAHS 241059Z 25009KT 12/07 A2999 RMK A01 T01210065  RH  069%=      5-min Rain = 0
KAHS 241100Z 25009KT 12/07 A2999 RMK A01 T01210066  RH  069%=      5-min Rain = 0
KAHS 241101Z 25009KT 12/07 A2999 RMK A01 T01210067  RH  070%=      5-min Rain = 0
KAHS 241102Z 25008KT 12/07 A2999 RMK A01 T01210068  RH  070%=      5-min Rain = 0
KAHS 241103Z 26008KT 12/07 A2999 RMK A01 T01200068  RH  070%=      5-min Rain = 0
KAHS 241104Z 26007KT 12/07 A2999 RMK A01 T01180067  RH  071%=      5-min Rain = 0
KAHS 241105Z 26008KT 12/07 A2999 RMK A01 T01160066  RH  071%=      5-min Rain = 0
KAHS 241106Z 26008KT 12/07 A2999 RMK A01 T01150065  RH  072%=      5-min Rain = 0
KAHS 241107Z 26008KT 11/07 A30 RMK A01 T01140065  RH  072%=      5-min Rain = 0
KAHS 241108Z 26008KT 11/06 A30 RMK A01 T01130064  RH  072%=      5-min Rain = 0
KAHS 241109Z 26007KT 11/06 A30 RMK A01 T01130064  RH  072%=      5-min Rain = 0
KAHS 241110Z 27007KT 11/06 A30 RMK A01 T01120063  RH  072%=      5-min Rain = 0
KAHS 241111Z 26008KT 11/06 A30 RMK A01 T01110063  RH  072%=      5-min Rain = 0
KAHS 241112Z 27008KT 11/06 A30 RMK A01 T01120063  RH  072%=      5-min Rain = 0
KAHS 241113Z 27007KT 11/06 A30 RMK A01 T01120061  RH  071%=      5-min Rain = 0
KAHS 241114Z 26008KT 11/06 A30 RMK A01 T01110058  RH  070%=      5-min Rain = 0
KAHS 241115Z 26007KT 11/05 A30 RMK A01 T01100053  RH  068%=      5-min Rain = 0
KAHS 241116Z 26007KT 11/05 A30 RMK A01 T01080049  RH  067%=      5-min Rain = 0
KAHS 241117Z 26008KT 11/05 A30 RMK A01 T01060047  RH  067%=      5-min Rain = 0
KAHS 241118Z 26008KT 11/05 A30 RMK A01 T01050045  RH  066%=      5-min Rain = 0
KAHS 241119Z 26008KT 10/04 A30 RMK A01 T01040044  RH  066%=      5-min Rain = 0
KAHS 241120Z 26008KT 10/04 A30 RMK A01 T01030043  RH  066%=      5-min Rain = 0
KAHS 241121Z 26008KT 10/04 A30 RMK A01 T01030043  RH  066%=      5-min Rain = 0
KAHS 241122Z 27007KT 10/04 A30 RMK A01 T01020043  RH  067%=      5-min Rain = 0
KAHS 241123Z 26008KT 10/05 A30 RMK A01 T01020045  RH  067%=      5-min Rain = 0
KAHS 241124Z 27008KT 10/05 A30 RMK A01 T01030046  RH  068%=      5-min Rain = 0
KAHS 241125Z 27008KT 10/05 A30 RMK A01 T01040048  RH  068%=      5-min Rain = 0
KAHS 241126Z 27008KT 11/05 A30 RMK A01 T01050049  RH  068%=      5-min Rain = 0
KAHS 241127Z 27008KT 11/05 A30 RMK A01 T01050050  RH  069%=      5-min Rain = 0
KAHS 241128Z 27009KT 11/05 A30 RMK A01 T01060051  RH  069%=      5-min Rain = 0
KAHS 241129Z 26009KT 11/05 A30 RMK A01 T01060052  RH  069%=      5-min Rain = 0
KAHS 241130Z 26009KT 11/05 A30 RMK A01 T01060054  RH  070%=      5-min Rain = 0
KAHS 241131Z 26009KT 11/06 A30 RMK A01 T01080055  RH  070%=      5-min Rain = 0
KAHS 241132Z 27009KT 11/06 A30 RMK A01 T01090056  RH  070%=      5-min Rain = 0
KAHS 241133Z 26010KT 11/06 A30 RMK A01 T01100058  RH  070%=      5-min Rain = 0
KAHS 241134Z 26010KT 11/06 A30 RMK A01 T01110059  RH  070%=      5-min Rain = 0
KAHS 241135Z 26010KT 11/06 A30 RMK A01 T01120059  RH  070%=      5-min Rain = 0
KAHS 241136Z 26010KT 11/06 A2999 RMK A01 T01130060  RH  070%=      5-min Rain = 0
KAHS 241137Z 25010KT 11/06 A2999 RMK A01 T01140060  RH  070%=      5-min Rain = 0
KAHS 241138Z 25009KT 11/06 A2999 RMK A01 T01140061  RH  070%=      5-min Rain = 0
KAHS 241139Z 25010KT 11/06 A2999 RMK A01 T01140061  RH  070%=      5-min Rain = 0
KAHS 241140Z 25010KT 11/06 A2999 RMK A01 T01140061  RH  070%=      5-min Rain = 0
KAHS 241141Z 24009KT 11/06 A2999 RMK A01 T01140061  RH  069%=      5-min Rain = 0
KAHS 241142Z 24009KT 11/06 A2999 RMK A01 T01140060  RH  069%=      5-min Rain = 0
KAHS 241143Z 24009KT 11/06 A2999 RMK A01 T01140061  RH  070%=      5-min Rain = 0
KAHS 241144Z 24009KT 11/06 A2999 RMK A01 T01130062  RH  070%=      5-min Rain = 0
KAHS 241145Z 23009KT 11/06 A2999 RMK A01 T01120061  RH  071%=      5-min Rain = 0
KAHS 241146Z 23009KT 11/06 A2999 RMK A01 T01120061  RH  071%=      5-min Rain = 0
KAHS 241147Z 23009KT 11/06 A2999 RMK A01 T01110060  RH  071%=      5-min Rain = 0
KAHS 241148Z 23009KT 11/06 A2999 RMK A01 T01090058  RH  071%=      5-min Rain = 0
KAHS 241149Z 23009KT 11/06 A2999 RMK A01 T01070056  RH  071%=      5-min Rain = 0
KAHS 241150Z 23009KT 11/06 A2999 RMK A01 T01060055  RH  071%=      5-min Rain = 0
KAHS 241151Z 23009KT 11/06 A2999 RMK A01 T01050055  RH  071%=      5-min Rain = 0
KAHS 241152Z 23009KT 10/06 A2999 RMK A01 T01040056  RH  072%=      5-min Rain = 0
KAHS 241153Z 23010KT 10/06 A2999 RMK A01 T01040056  RH  072%=      5-min Rain = 0
KAHS 241154Z 24010KT 10/06 A2999 RMK A01 T01040058  RH  073%=      5-min Rain = 0
KAHS 241155Z 24010KT 11/06 A2999 RMK A01 T01050060  RH  074%=      5-min Rain = 0
KAHS 241156Z 24010KT 11/06 A2999 RMK A01 T01050061  RH  074%=      5-min Rain = 0
KAHS 241157Z 24010KT 11/06 A2999 RMK A01 T01060062  RH  074%=      5-min Rain = 0
KAHS 241158Z 24008KT 11/06 A2999 RMK A01 T01060063  RH  075%=      5-min Rain = 0
KAHS 241159Z 24007KT 11/06 A2999 RMK A01 T01060064  RH  075%=      5-min Rain = 0
KAHS 241200Z 24007KT 11/06 A30 RMK A01 T01050063  RH  075%=      5-min Rain = 0
KAHS 241201Z 24007KT 11/06 A30 RMK A01 T01050064  RH  076%=      5-min Rain = 0
KAHS 241202Z 24007KT 10/06 A30 RMK A01 T01040064  RH  076%=      5-min Rain = 0
KAHS 241203Z 24007KT 10/06 A30 RMK A01 T01030064  RH  077%=      5-min Rain = 0
KAHS 241204Z 24007KT 10/07 A30 RMK A01 T01030065  RH  077%=      5-min Rain = 0
KAHS 241205Z 23006KT 10/07 A30 RMK A01 T01030066  RH  078%=      5-min Rain = 0
KAHS 241206Z 23007KT 10/07 A30 RMK A01 T01020065  RH  078%=      5-min Rain = 0
KAHS 241207Z 23007KT 10/07 A30 RMK A01 T01020066  RH  078%=      5-min Rain = 0
KAHS 241208Z 23006KT 10/07 A30 RMK A01 T01030067  RH  079%=      5-min Rain = 0
KAHS 241209Z 23006KT 10/07 A30 RMK A01 T01030067  RH  079%=      5-min Rain = 0
KAHS 241210Z 22005KT 10/07 A30 RMK A01 T01020067  RH  079%=      5-min Rain = 0
KAHS 241211Z 22005KT 10/07 A30 RMK A01 T01020066  RH  079%=      5-min Rain = 0
KAHS 241212Z 23004KT 10/07 A30 RMK A01 T01010066  RH  079%=      5-min Rain = 0
KAHS 241213Z 23004KT 10/07 A30 RMK A01 T01010066  RH  079%=      5-min Rain = 0
KAHS 241214Z 23003KT 10/07 A30 RMK A01 T01000065  RH  079%=      5-min Rain = 0
KAHS 241215Z 23003KT 10/07 A30 RMK A01 T00990065  RH  079%=      5-min Rain = 0
KAHS 241216Z 22002KT 10/07 A30 RMK A01 T00980065  RH  080%=      5-min Rain = 0
KAHS 241217Z 22002KT 10/07 A30 RMK A01 T00980065  RH  080%=      5-min Rain = 0
KAHS 241218Z 23001KT 10/07 A3001 RMK A01 T00980065  RH  080%=      5-min Rain = 0
KAHS 241219Z 25001KT 10/07 A3001 RMK A01 T00970065  RH  080%=      5-min Rain = 0
KAHS 241220Z 26002KT 10/06 A3001 RMK A01 T00960064  RH  080%=      5-min Rain = 0
KAHS 241221Z 26001KT 10/06 A3001 RMK A01 T00960064  RH  081%=      5-min Rain = 0
KAHS 241222Z 27001KT 10/06 A3001 RMK A01 T00950063  RH  081%=      5-min Rain = 0
KAHS 241223Z 27000KT 09/06 A3001 RMK A01 T00940063  RH  081%=      5-min Rain = 0
KAHS 241224Z 00000KT 09/06 A3001 RMK A01 T00930062  RH  081%=      5-min Rain = 0
KAHS 241225Z 31000KT 09/06 A3001 RMK A01 T00930063  RH  081%=      5-min Rain = 0
KAHS 241226Z 32001KT 09/06 A3001 RMK A01 T00930063  RH  081%=      5-min Rain = 0
KAHS 241227Z 28001KT 09/06 A3001 RMK A01 T00930063  RH  082%=      5-min Rain = 0
KAHS 241228Z 30001KT 09/06 A3001 RMK A01 T00930064  RH  082%=      5-min Rain = 0
KAHS 241229Z 30002KT 09/07 A3001 RMK A01 T00940065  RH  082%=      5-min Rain = 0
KAHS 241230Z 32002KT 10/07 A3001 RMK A01 T00950065  RH  081%=      5-min Rain = 0
KAHS 241231Z 32003KT 10/06 A3001 RMK A01 T00950063  RH  081%=      5-min Rain = 0
KAHS 241232Z 34002KT 09/06 A3001 RMK A01 T00930061  RH  080%=      5-min Rain = 0
KAHS 241233Z 35003KT 09/06 A3001 RMK A01 T00920060  RH  080%=      5-min Rain = 0
KAHS 241234Z 35003KT 09/06 A3001 RMK A01 T00910061  RH  081%=      5-min Rain = 0
KAHS 241235Z 33003KT 09/06 A3001 RMK A01 T00910062  RH  082%=      5-min Rain = 0
KAHS 241236Z 31003KT 09/06 A3002 RMK A01 T00920063  RH  082%=      5-min Rain = 0
KAHS 241237Z 30004KT 09/07 A3002 RMK A01 T00930065  RH  083%=      5-min Rain = 0
KAHS 241238Z 29004KT 09/06 A3002 RMK A01 T00930064  RH  082%=      5-min Rain = 0
KAHS 241239Z 28004KT 09/07 A3002 RMK A01 T00930065  RH  083%=      5-min Rain = 0
KAHS 241240Z 27004KT 09/07 A3002 RMK A01 T00940066  RH  083%=      5-min Rain = 0
KAHS 241241Z 27005KT 10/07 A3002 RMK A01 T00950067  RH  083%=      5-min Rain = 0
KAHS 241242Z 26005KT 10/07 A3002 RMK A01 T00950065  RH  082%=      5-min Rain = 0
KAHS 241243Z 26005KT 10/07 A3002 RMK A01 T00950065  RH  082%=      5-min Rain = 0
KAHS 241244Z 26005KT 10/07 A3002 RMK A01 T00950065  RH  081%=      5-min Rain = 0
KAHS 241245Z 27005KT 10/06 A3002 RMK A01 T00950064  RH  081%=      5-min Rain = 0
KAHS 241246Z 27004KT 09/06 A3002 RMK A01 T00940064  RH  081%=      5-min Rain = 0
KAHS 241247Z 27005KT 09/06 A3002 RMK A01 T00940063  RH  081%=      5-min Rain = 0
KAHS 241248Z 26005KT 09/06 A3002 RMK A01 T00920062  RH  081%=      5-min Rain = 0
KAHS 241249Z 26006KT 09/06 A3002 RMK A01 T00920062  RH  082%=      5-min Rain = 0
KAHS 241250Z 25006KT 09/06 A3002 RMK A01 T00900061  RH  082%=      5-min Rain = 0
KAHS 241251Z 25006KT 09/06 A3002 RMK A01 T00900061  RH  082%=      5-min Rain = 0
KAHS 241252Z 24006KT 09/06 A3002 RMK A01 T00890061  RH  083%=      5-min Rain = 0
KAHS 241253Z 24006KT 09/06 A3002 RMK A01 T00890062  RH  083%=      5-min Rain = 0
KAHS 241254Z 25007KT 09/06 A3002 RMK A01 T00890062  RH  083%=      5-min Rain = 0
KAHS 241255Z 25007KT 09/07 A3002 RMK A01 T00910066  RH  084%=      5-min Rain = 0
KAHS 241256Z 25007KT 09/06 A3002 RMK A01 T00930064  RH  083%=      5-min Rain = 0
KAHS 241257Z 24007KT 09/06 A3002 RMK A01 T00920063  RH  082%=      5-min Rain = 0
KAHS 241258Z 24007KT 09/06 A3002 RMK A01 T00920063  RH  082%=      5-min Rain = 0
KAHS 241259Z 24006KT 09/06 A3002 RMK A01 T00920064  RH  082%=      5-min Rain = 0
KAHS 241300Z 23006KT 09/06 A3002 RMK A01 T00930064  RH  082%=      5-min Rain = 0
KAHS 241301Z 23006KT 09/06 A3003 RMK A01 T00930064  RH  082%=      5-min Rain = 0
KAHS 241302Z 23006KT 09/07 A3003 RMK A01 T00940065  RH  082%=      5-min Rain = 0
KAHS 241303Z 22005KT 09/07 A3003 RMK A01 T00940065  RH  082%=      5-min Rain = 0
KAHS 241304Z 22005KT 10/07 A3003 RMK A01 T00950066  RH  082%=      5-min Rain = 0
KAHS 241305Z 21005KT 10/07 A3003 RMK A01 T00960067  RH  082%=      5-min Rain = 0
KAHS 241306Z 22006KT 10/07 A3003 RMK A01 T00970067  RH  082%=      5-min Rain = 0
KAHS 241307Z 22006KT 10/07 A3003 RMK A01 T00970067  RH  082%=      5-min Rain = 0
KAHS 241308Z 23006KT 10/07 A3003 RMK A01 T00980068  RH  082%=      5-min Rain = 0
KAHS 241309Z 22006KT 10/07 A3003 RMK A01 T00990069  RH  081%=      5-min Rain = 0
KAHS 241310Z 22005KT 10/07 A3003 RMK A01 T01000069  RH  081%=      5-min Rain = 0
KAHS 241311Z 22006KT 10/07 A3003 RMK A01 T01000069  RH  081%=      5-min Rain = 0
KAHS 241312Z 22006KT 10/07 A3003 RMK A01 T01010070  RH  081%=      5-min Rain = 0
KAHS 241313Z 22005KT 10/07 A3003 RMK A01 T01020070  RH  081%=      5-min Rain = 0
KAHS 241314Z 22005KT 10/07 A3003 RMK A01 T01020070  RH  080%=      5-min Rain = 0
KAHS 241315Z 22005KT 10/07 A3003 RMK A01 T01020070  RH  081%=      5-min Rain = 0
KAHS 241316Z 21005KT 10/07 A3003 RMK A01 T01020070  RH  081%=      5-min Rain = 0
KAHS 241317Z 21005KT 10/07 A3003 RMK A01 T01030071  RH  081%=      5-min Rain = 0
KAHS 241318Z 22005KT 10/07 A3003 RMK A01 T01040071  RH  080%=      5-min Rain = 0
KAHS 241319Z 22005KT 10/07 A3003 RMK A01 T01040071  RH  080%=      5-min Rain = 0
KAHS 241320Z 22005KT 10/07 A3003 RMK A01 T01040071  RH  080%=      5-min Rain = 0
KAHS 241321Z 22006KT 11/07 A3003 RMK A01 T01050071  RH  080%=      5-min Rain = 0
KAHS 241322Z 22005KT 11/07 A3003 RMK A01 T01050071  RH  080%=      5-min Rain = 0
KAHS 241323Z 22005KT 11/07 A3003 RMK A01 T01050072  RH  080%=      5-min Rain = 0
KAHS 241324Z 23005KT 11/07 A3003 RMK A01 T01050072  RH  080%=      5-min Rain = 0
KAHS 241325Z 22005KT 11/07 A3003 RMK A01 T01060072  RH  080%=      5-min Rain = 0
KAHS 241326Z 22005KT 11/07 A3003 RMK A01 T01060072  RH  080%=      5-min Rain = 0
KAHS 241327Z 22005KT 11/07 A3003 RMK A01 T01060072  RH  080%=      5-min Rain = 0
KAHS 241328Z 22005KT 11/07 A3003 RMK A01 T01070073  RH  080%=      5-min Rain = 0
KAHS 241329Z 22005KT 11/07 A3003 RMK A01 T01070073  RH  079%=      5-min Rain = 0
KAHS 241330Z 22005KT 11/07 A3004 RMK A01 T01070073  RH  079%=      5-min Rain = 0
KAHS 241331Z 23005KT 11/07 A3004 RMK A01 T01080074  RH  079%=      5-min Rain = 0
KAHS 241332Z 23005KT 11/07 A3004 RMK A01 T01080074  RH  079%=      5-min Rain = 0
KAHS 241333Z 23005KT 11/07 A3004 RMK A01 T01080074  RH  079%=      5-min Rain = 0
KAHS 241334Z 24005KT 11/08 A3004 RMK A01 T01080075  RH  080%=      5-min Rain = 0
KAHS 241335Z 24005KT 11/08 A3004 RMK A01 T01080075  RH  080%=      5-min Rain = 0
KAHS 241336Z 24005KT 11/08 A3004 RMK A01 T01080075  RH  080%=      5-min Rain = 0
KAHS 241337Z 24005KT 11/08 A3004 RMK A01 T01080075  RH  080%=      5-min Rain = 0
KAHS 241338Z 24005KT 11/08 A3004 RMK A01 T01080075  RH  080%=      5-min Rain = 0
KAHS 241339Z 24006KT 11/08 A3004 RMK A01 T01080075  RH  080%=      5-min Rain = 0
KAHS 241340Z 24006KT 11/08 A3004 RMK A01 T01080075  RH  080%=      5-min Rain = 0
KAHS 241341Z 25006KT 11/08 A3004 RMK A01 T01090076  RH  080%=      5-min Rain = 0
KAHS 241342Z 25006KT 11/08 A3004 RMK A01 T01100076  RH  080%=      5-min Rain = 0
KAHS 241343Z 25005KT 11/08 A3004 RMK A01 T01100076  RH  080%=      5-min Rain = 0
KAHS 241344Z 25005KT 11/08 A3004 RMK A01 T01100076  RH  080%=      5-min Rain = 0
KAHS 241345Z 25006KT 11/08 A3004 RMK A01 T01110077  RH  080%=      5-min Rain = 0
KAHS 241346Z 25006KT 11/08 A3004 RMK A01 T01110078  RH  080%=      5-min Rain = 0
KAHS 241347Z 25007KT 11/08 A3004 RMK A01 T01120078  RH  079%=      5-min Rain = 0
KAHS 241348Z 25007KT 11/08 A3004 RMK A01 T01120078  RH  079%=      5-min Rain = 0
KAHS 241349Z 25006KT 11/08 A3004 RMK A01 T01130078  RH  079%=      5-min Rain = 0
KAHS 241350Z 25006KT 11/08 A3004 RMK A01 T01140079  RH  079%=      5-min Rain = 0
KAHS 241351Z 26006KT 12/08 A3004 RMK A01 T01150080  RH  079%=      5-min Rain = 0
KAHS 241352Z 25007KT 12/08 A3004 RMK A01 T01160080  RH  079%=      5-min Rain = 0
KAHS 241353Z 25006KT 12/08 A3004 RMK A01 T01170081  RH  079%=      5-min Rain = 0
KAHS 241354Z 26006KT 12/08 A3004 RMK A01 T01180081  RH  078%=      5-min Rain = 0
KAHS 241355Z 26006KT 12/08 A3004 RMK A01 T01190082  RH  078%=      5-min Rain = 0
KAHS 241356Z 26006KT 12/08 A3004 RMK A01 T01200082  RH  078%=      5-min Rain = 0
KAHS 241357Z 26006KT 12/08 A3004 RMK A01 T01210083  RH  077%=      5-min Rain = 0
KAHS 241358Z 27006KT 12/08 A3005 RMK A01 T01230084  RH  077%=      5-min Rain = 0
KAHS 241359Z 27007KT 12/09 A3005 RMK A01 T01240086  RH  077%=      5-min Rain = 0
KAHS 241400Z 26008KT 13/09 A3005 RMK A01 T01260087  RH  077%=      5-min Rain = 0
KAHS 241401Z 25007KT 13/09 A3005 RMK A01 T01270087  RH  077%=      5-min Rain = 0
KAHS 241402Z 26008KT 13/09 A3005 RMK A01 T01280088  RH  076%=      5-min Rain = 0
KAHS 241403Z 26008KT 13/09 A3005 RMK A01 T01290088  RH  076%=      5-min Rain = 0
KAHS 241404Z 27009KT 13/09 A3005 RMK A01 T01300088  RH  076%=      5-min Rain = 0
KAHS 241405Z 26008KT 13/09 A3005 RMK A01 T01300088  RH  076%=      5-min Rain = 0
KAHS 241406Z 27008KT 13/09 A3005 RMK A01 T01310089  RH  075%=      5-min Rain = 0
KAHS 241407Z 26007KT 13/09 A3005 RMK A01 T01320090  RH  075%=      5-min Rain = 0
KAHS 241408Z 26008KT 13/09 A3005 RMK A01 T01330089  RH  075%=      5-min Rain = 0
KAHS 241409Z 27006KT 13/09 A3005 RMK A01 T01330090  RH  075%=      5-min Rain = 0
KAHS 241410Z 27008KT 14/09 A3005 RMK A01 T01350090  RH  074%=      5-min Rain = 0
KAHS 241411Z 28008KT 13/09 A3005 RMK A01 T01340088  RH  074%=      5-min Rain = 0
KAHS 241412Z 28008KT 13/09 A3005 RMK A01 T01340089  RH  074%=      5-min Rain = 0
KAHS 241413Z 28008KT 14/09 A3005 RMK A01 T01350089  RH  073%=      5-min Rain = 0
KAHS 241414Z 29008KT 14/09 A3005 RMK A01 T01360089  RH  073%=      5-min Rain = 0
KAHS 241415Z 29009KT 14/09 A3005 RMK A01 T01360088  RH  073%=      5-min Rain = 0
KAHS 241416Z 30007KT 14/09 A3006 RMK A01 T01350088  RH  073%=      5-min Rain = 0
KAHS 241417Z 30006KT 14/09 A3006 RMK A01 T01360090  RH  074%=      5-min Rain = 0
KAHS 241418Z 29007KT 14/09 A3006 RMK A01 T01370090  RH  073%=      5-min Rain = 0
KAHS 241419Z 30008KT 14/09 A3006 RMK A01 T01370088  RH  072%=      5-min Rain = 0
KAHS 241420Z 31008KT 14/09 A3006 RMK A01 T01370087  RH  072%=      5-min Rain = 0
KAHS 241421Z 30008KT 14/09 A3006 RMK A01 T01350085  RH  072%=      5-min Rain = 0
KAHS 241422Z 30007KT 13/08 A3006 RMK A01 T01340084  RH  072%=      5-min Rain = 0
KAHS 241423Z 30008KT 13/08 A3006 RMK A01 T01330083  RH  071%=      5-min Rain = 0
KAHS 241424Z 30007KT 13/08 A3006 RMK A01 T01330080  RH  070%=      5-min Rain = 0
KAHS 241425Z 29008KT 13/08 A3007 RMK A01 T01330078  RH  069%=      5-min Rain = 0
KAHS 241426Z 29008KT 13/07 A3007 RMK A01 T01330073  RH  067%=      5-min Rain = 0
KAHS 241427Z 30007KT 13/07 A3007 RMK A01 T01330072  RH  066%=      5-min Rain = 0
KAHS 241428Z 30007KT 13/07 A3007 RMK A01 T01330071  RH  066%=      5-min Rain = 0
KAHS 241429Z 30008KT 13/07 A3007 RMK A01 T01340070  RH  065%=      5-min Rain = 0
KAHS 241430Z 30008KT 13/07 A3007 RMK A01 T01330065  RH  063%=      5-min Rain = 0
KAHS 241431Z 29007KT 13/06 A3007 RMK A01 T01330062  RH  062%=      5-min Rain = 0
KAHS 241432Z 28006KT 13/06 A3007 RMK A01 T01340061  RH  061%=      5-min Rain = 0
KAHS 241433Z 29008KT 13/06 A3007 RMK A01 T01340057  RH  060%=      5-min Rain = 0
KAHS 241434Z 29006KT 13/06 A3007 RMK A01 T01340056  RH  059%=      5-min Rain = 0
KAHS 241435Z 30008KT 14/05 A3007 RMK A01 T01350046  RH  055%=      5-min Rain = 0
KAHS 241436Z 30007KT 14/04 A3007 RMK A01 T01350036  RH  051%=      5-min Rain = 0
KAHS 241437Z 31006KT 14/03 A3007 RMK A01 T01360031  RH  049%=      5-min Rain = 0
KAHS 241438Z 31006KT 14/03 A3008 RMK A01 T01380030  RH  048%=      5-min Rain = 0
KAHS 241439Z 32008KT 14/02 A3008 RMK A01 T01380016  RH  043%=      5-min Rain = 0
KAHS 241440Z 32008KT 14/01 A3008 RMK A01 T01380007  RH  041%=      5-min Rain = 0
KAHS 241441Z 32010KT 14/01 A3008 RMK A01 T01380007  RH  041%=      5-min Rain = 0
KAHS 241442Z 31009KT 14/00 A3008 RMK A01 T01370002  RH  039%=      5-min Rain = 0
KAHS 241443Z 31008KT 14/01 A3008 RMK A01 T01380005  RH  040%=      5-min Rain = 0
KAHS 241444Z 30011KT 14/00 A3008 RMK A01 T01380003  RH  040%=      5-min Rain = 0
KAHS 241445Z 30011KT 14/M00 A3008 RMK A01 T01361001  RH  039%=      5-min Rain = 0
KAHS 241446Z 30011KT 14/00 A3007 RMK A01 T01350000  RH  040%=      5-min Rain = 0
KAHS 241447Z 30009KT 14/00 A3008 RMK A01 T01350004  RH  041%=      5-min Rain = 0
KAHS 241448Z 31009KT 14/00 A3008 RMK A01 T01360003  RH  040%=      5-min Rain = 0
KAHS 241449Z 31009KT 14/00 A3008 RMK A01 T01350001  RH  040%=      5-min Rain = 0
KAHS 241450Z 31009KT 14/00 A3008 RMK A01 T01350001  RH  040%=      5-min Rain = 0
KAHS 241451Z 30008KT 14/00 A3008 RMK A01 T01350001  RH  040%=      5-min Rain = 0
KAHS 241452Z 30008KT 14/01 A3008 RMK A01 T01350005  RH  041%=      5-min Rain = 0
KAHS 241453Z 29007KT 14/01 A3008 RMK A01 T01370009  RH  042%=      5-min Rain = 0
KAHS 241454Z 30009KT 14/00 A3007 RMK A01 T01370004  RH  040%=      5-min Rain = 0
KAHS 241455Z 31008KT 14/00 A3007 RMK A01 T01360003  RH  040%=      5-min Rain = 0
KAHS 241456Z 30006KT 14/01 A3007 RMK A01 T01360006  RH  041%=      5-min Rain = 0
KAHS 241457Z 32008KT 14/01 A3007 RMK A01 T01380010  RH  042%=      5-min Rain = 0
KAHS 241458Z 32010KT 14/01 A3007 RMK A01 T01380007  RH  041%=      5-min Rain = 0
KAHS 241459Z 32008KT 14/01 A3007 RMK A01 T01370006  RH  041%=      5-min Rain = 0
KAHS 241500Z 31008KT 14/01 A3007 RMK A01 T01380008  RH  041%=      5-min Rain = 0
KAHS 241501Z 32008KT 14/01 A3007 RMK A01 T01380006  RH  041%=      5-min Rain = 0
KAHS 241502Z 32009KT 14/01 A3007 RMK A01 T01380008  RH  041%=      5-min Rain = 0
KAHS 241503Z 32009KT 14/01 A3007 RMK A01 T01370007  RH  041%=      5-min Rain = 0
KAHS 241504Z 33007KT 14/01 A3007 RMK A01 T01370007  RH  041%=      5-min Rain = 0
KAHS 241505Z 31008KT 14/01 A3007 RMK A01 T01380011  RH  042%=      5-min Rain = 0
KAHS 241506Z 31008KT 14/01 A3007 RMK A01 T01390010  RH  041%=      5-min Rain = 0
KAHS 241507Z 32007KT 14/01 A3007 RMK A01 T01400012  RH  042%=      5-min Rain = 0
KAHS 241508Z 32009KT 14/01 A3007 RMK A01 T01400009  RH  041%=      5-min Rain = 0
KAHS 241509Z 33008KT 14/01 A3007 RMK A01 T01390010  RH  041%=      5-min Rain = 0
KAHS 241510Z 31007KT 14/01 A3007 RMK A01 T01390010  RH  041%=      5-min Rain = 0
KAHS 241511Z 32009KT 14/01 A3007 RMK A01 T01400013  RH  042%=      5-min Rain = 0
KAHS 241512Z 34008KT 14/01 A3008 RMK A01 T01400009  RH  041%=      5-min Rain = 0
KAHS 241513Z 32007KT 14/01 A3008 RMK A01 T01400012  RH  042%=      5-min Rain = 0
KAHS 241514Z 32007KT 14/02 A3008 RMK A01 T01420016  RH  043%=      5-min Rain = 0
KAHS 241515Z 33008KT 14/01 A3008 RMK A01 T01420011  RH  041%=      5-min Rain = 0
KAHS 241516Z 33006KT 14/01 A3008 RMK A01 T01400009  RH  041%=      5-min Rain = 0
KAHS 241517Z 33007KT 14/01 A3008 RMK A01 T01410013  RH  042%=      5-min Rain = 0
KAHS 241518Z 33006KT 14/01 A3008 RMK A01 T01410012  RH  041%=      5-min Rain = 0
KAHS 241519Z 33007KT 14/01 A3008 RMK A01 T01410012  RH  041%=      5-min Rain = 0
KAHS 241520Z 32007KT 14/01 A3008 RMK A01 T01410011  RH  041%=      5-min Rain = 0
KAHS 241521Z 32006KT 14/01 A3008 RMK A01 T01420014  RH  042%=      5-min Rain = 0
KAHS 241522Z 32007KT 14/02 A3008 RMK A01 T01440017  RH  042%=      5-min Rain = 0
KAHS 241523Z 33007KT 15/02 A3008 RMK A01 T01460021  RH  043%=      5-min Rain = 0
KAHS 241524Z 34008KT 15/02 A3008 RMK A01 T01470017  RH  041%=      5-min Rain = 0
KAHS 241525Z 35008KT 15/02 A3008 RMK A01 T01470018  RH  042%=      5-min Rain = 0
KAHS 241526Z 35008KT 15/02 A3008 RMK A01 T01480019  RH  042%=      5-min Rain = 0
KAHS 241527Z 35007KT 15/02 A3008 RMK A01 T01480021  RH  042%=      5-min Rain = 0
KAHS 241528Z 34007KT 15/02 A3008 RMK A01 T01490023  RH  043%=      5-min Rain = 0
KAHS 241529Z 34007KT 15/02 A3008 RMK A01 T01500024  RH  043%=      5-min Rain = 0
KAHS 241530Z 35006KT 15/02 A3007 RMK A01 T01490020  RH  042%=      5-min Rain = 0
KAHS 241531Z 02007KT 15/02 A3007 RMK A01 T01500023  RH  042%=      5-min Rain = 0
KAHS 241532Z 01006KT 15/02 A3007 RMK A01 T01500022  RH  042%=      5-min Rain = 0
KAHS 241533Z 36006KT 15/03 A3007 RMK A01 T01510026  RH  043%=      5-min Rain = 0
KAHS 241534Z 00005KT 15/03 A3007 RMK A01 T01530027  RH  043%=      5-min Rain = 0
KAHS 241535Z 35008KT 15/02 A3007 RMK A01 T01530023  RH  042%=      5-min Rain = 0
KAHS 241536Z 00007KT 15/02 A3007 RMK A01 T01510023  RH  042%=      5-min Rain = 0
KAHS 241537Z 36006KT 15/03 A3008 RMK A01 T01510025  RH  043%=      5-min Rain = 0
KAHS 241538Z 36006KT 15/02 A3008 RMK A01 T01490023  RH  043%=      5-min Rain = 0
KAHS 241539Z 35004KT 15/02 A3008 RMK A01 T01490024  RH  043%=      5-min Rain = 0
KAHS 241540Z 34004KT 15/03 A3008 RMK A01 T01490025  RH  043%=      5-min Rain = 0
KAHS 241541Z 35003KT 15/02 A3008 RMK A01 T01490024  RH  043%=      5-min Rain = 0
KAHS 241542Z 33004KT 15/03 A3008 RMK A01 T01490027  RH  044%=      5-min Rain = 0
KAHS 241543Z 00004KT 15/03 A3008 RMK A01 T01490026  RH  044%=      5-min Rain = 0
KAHS 241544Z 00004KT 15/02 A3008 RMK A01 T01480022  RH  042%=      5-min Rain = 0
KAHS 241545Z 03005KT 15/02 A3008 RMK A01 T01470022  RH  043%=      5-min Rain = 0
KAHS 241546Z 02004KT 15/03 A3008 RMK A01 T01470025  RH  044%=      5-min Rain = 0
KAHS 241547Z 01004KT 15/03 A3008 RMK A01 T01490030  RH  045%=      5-min Rain = 0
KAHS 241548Z 36003KT 15/03 A3008 RMK A01 T01500025  RH  043%=      5-min Rain = 0
KAHS 241549Z 34004KT 15/03 A3008 RMK A01 T01480025  RH  043%=      5-min Rain = 0
KAHS 241550Z 00004KT 15/03 A3008 RMK A01 T01470028  RH  045%=      5-min Rain = 0
KAHS 241551Z 34004KT 15/03 A3008 RMK A01 T01470028  RH  045%=      5-min Rain = 0
KAHS 241552Z 33004KT 15/03 A3008 RMK A01 T01460026  RH  044%=      5-min Rain = 0
KAHS 241553Z 33004KT 15/03 A3008 RMK A01 T01460026  RH  044%=      5-min Rain = 0
KAHS 241554Z 33004KT 15/03 A3008 RMK A01 T01460028  RH  045%=      5-min Rain = 0
KAHS 241555Z 35005KT 15/03 A3009 RMK A01 T01470028  RH  045%=      5-min Rain = 0
KAHS 241556Z 35003KT 15/03 A3009 RMK A01 T01470030  RH  045%=      5-min Rain = 0
KAHS 241557Z 34003KT 15/03 A3009 RMK A01 T01490032  RH  045%=      5-min Rain = 0
KAHS 241558Z 32003KT 15/03 A3009 RMK A01 T01500029  RH  044%=      5-min Rain = 0
KAHS 241559Z 31002KT 15/03 A3009 RMK A01 T01500030  RH  045%=      5-min Rain = 0
KAHS 241600Z 32003KT 15/03 A3009 RMK A01 T01510032  RH  045%=      5-min Rain = 0
KAHS 241601Z 32003KT 15/03 A3009 RMK A01 T01520029  RH  044%=      5-min Rain = 0
KAHS 241602Z 34003KT 15/03 A3009 RMK A01 T01510030  RH  044%=      5-min Rain = 0
KAHS 241603Z 35003KT 15/03 A3009 RMK A01 T01520033  RH  045%=      5-min Rain = 0
KAHS 241604Z 33002KT 15/04 A3009 RMK A01 T01540035  RH  045%=      5-min Rain = 0
KAHS 241605Z 34004KT 16/03 A3009 RMK A01 T01550033  RH  044%=      5-min Rain = 0
KAHS 241606Z 32004KT 15/03 A3009 RMK A01 T01540031  RH  044%=      5-min Rain = 0
KAHS 241607Z 30004KT 15/03 A3009 RMK A01 T01520029  RH  044%=      5-min Rain = 0
KAHS 241608Z 33003KT 15/03 A3009 RMK A01 T01510029  RH  044%=      5-min Rain = 0
KAHS 241609Z 35004KT 15/03 A3009 RMK A01 T01510032  RH  045%=      5-min Rain = 0
KAHS 241610Z 34003KT 15/03 A3009 RMK A01 T01510029  RH  044%=      5-min Rain = 0
KAHS 241611Z 35003KT 15/03 A3009 RMK A01 T01500027  RH  044%=      5-min Rain = 0
KAHS 241612Z 36003KT 15/03 A3009 RMK A01 T01500027  RH  044%=      5-min Rain = 0
KAHS 241613Z 35003KT 15/03 A3009 RMK A01 T01490028  RH  044%=      5-min Rain = 0
KAHS 241614Z 34002KT 15/03 A3009 RMK A01 T01500030  RH  045%=      5-min Rain = 0
KAHS 241615Z 34002KT 15/03 A3009 RMK A01 T01510029  RH  044%=      5-min Rain = 0
KAHS 241616Z 34001KT 15/03 A3009 RMK A01 T01500025  RH  043%=      5-min Rain = 0
KAHS 241617Z 33000KT 15/02 A3009 RMK A01 T01510023  RH  042%=      5-min Rain = 0
KAHS 241618Z 34001KT 15/03 A3009 RMK A01 T01530030  RH  043%=      5-min Rain = 0
KAHS 241619Z 35000KT 16/03 A3009 RMK A01 T01550027  RH  042%=      5-min Rain = 0
KAHS 241620Z 04000KT 16/03 A3009 RMK A01 T01550025  RH  042%=      5-min Rain = 0
KAHS 241621Z 02001KT 15/02 A3009 RMK A01 T01540024  RH  041%=      5-min Rain = 0
KAHS 241622Z 36002KT 16/03 A3009 RMK A01 T01550027  RH  042%=      5-min Rain = 0
KAHS 241623Z 24001KT 16/02 A3009 RMK A01 T01560024  RH  041%=      5-min Rain = 0
KAHS 241624Z 00000KT 16/03 A3009 RMK A01 T01580028  RH  042%=      5-min Rain = 0
KAHS 241625Z 00000KT 16/03 A3009 RMK A01 T01600033  RH  043%=      5-min Rain = 0
KAHS 241626Z 30000KT 16/03 A3009 RMK A01 T01610029  RH  041%=      5-min Rain = 0
KAHS 241627Z 29000KT 16/03 A3009 RMK A01 T01600029  RH  041%=      5-min Rain = 0
KAHS 241628Z 28002KT 16/03 A3009 RMK A01 T01600029  RH  041%=      5-min Rain = 0
KAHS 241629Z 28002KT 16/03 A301 RMK A01 T01590028  RH  041%=      5-min Rain = 0
KAHS 241630Z 30002KT 16/03 A301 RMK A01 T01570026  RH  041%=      5-min Rain = 0
KAHS 241631Z 28003KT 16/03 A301 RMK A01 T01560028  RH  042%=      5-min Rain = 0
KAHS 241632Z 26001KT 16/03 A301 RMK A01 T01560027  RH  042%=      5-min Rain = 0
KAHS 241633Z 23001KT 16/03 A3009 RMK A01 T01570030  RH  043%=      5-min Rain = 0
KAHS 241634Z 23001KT 16/03 A3009 RMK A01 T01570027  RH  042%=      5-min Rain = 0
KAHS 241635Z 28001KT 16/03 A3009 RMK A01 T01570030  RH  042%=      5-min Rain = 0
KAHS 241636Z 29004KT 16/04 A3009 RMK A01 T01600035  RH  043%=      5-min Rain = 0
KAHS 241637Z 29003KT 16/03 A301 RMK A01 T01600028  RH  041%=      5-min Rain = 0
KAHS 241638Z 29002KT 16/03 A301 RMK A01 T01590029  RH  042%=      5-min Rain = 0
KAHS 241639Z 29000KT 16/03 A301 RMK A01 T01600027  RH  041%=      5-min Rain = 0
KAHS 241640Z 00000KT 16/03 A301 RMK A01 T01620027  RH  040%=      5-min Rain = 0
KAHS 241641Z 23000KT 16/02 A301 RMK A01 T01620024  RH  039%=      5-min Rain = 0
KAHS 241642Z 00000KT 16/03 A3009 RMK A01 T01640026  RH  040%=      5-min Rain = 0
KAHS 241643Z 01000KT 17/03 A3009 RMK A01 T01650029  RH  040%=      5-min Rain = 0
KAHS 241644Z 09001KT 17/03 A3009 RMK A01 T01660029  RH  040%=      5-min Rain = 0
KAHS 241645Z 04000KT 17/03 A3009 RMK A01 T01680029  RH  039%=      5-min Rain = 0
KAHS 241646Z 03002KT 17/03 A3009 RMK A01 T01700031  RH  039%=      5-min Rain = 0
KAHS 241647Z 03003KT 17/03 A3009 RMK A01 T01680029  RH  039%=      5-min Rain = 0
KAHS 241648Z 03001KT 17/03 A3009 RMK A01 T01660028  RH  039%=      5-min Rain = 0
KAHS 241649Z 00001KT 17/03 A3009 RMK A01 T01660029  RH  040%=      5-min Rain = 0
KAHS 241650Z 35003KT 17/03 A3009 RMK A01 T01670034  RH  041%=      5-min Rain = 0
KAHS 241651Z 34002KT 17/04 A3009 RMK A01 T01690036  RH  041%=      5-min Rain = 0
KAHS 241652Z 01002KT 17/04 A3009 RMK A01 T01700036  RH  041%=      5-min Rain = 0
KAHS 241653Z 03002KT 17/04 A3009 RMK A01 T01720039  RH  041%=      5-min Rain = 0
KAHS 241654Z 04002KT 18/04 A3009 RMK A01 T01750039  RH  040%=      5-min Rain = 0
KAHS 241655Z 07002KT 17/03 A3009 RMK A01 T01730031  RH  039%=      5-min Rain = 0
KAHS 241656Z 03000KT 17/03 A3009 RMK A01 T01710031  RH  039%=      5-min Rain = 0
KAHS 241657Z 09000KT 17/03 A3009 RMK A01 T01720033  RH  039%=      5-min Rain = 0
KAHS 241658Z 14000KT 18/03 A3009 RMK A01 T01750033  RH  039%=      5-min Rain = 0
KAHS 241659Z 12001KT 18/03 A3009 RMK A01 T01780034  RH  038%=      5-min Rain = 0
KAHS 241700Z 13001KT 18/04 A3009 RMK A01 T01790035  RH  038%=      5-min Rain = 0
KAHS 241701Z 15002KT 18/03 A3009 RMK A01 T01800033  RH  038%=      5-min Rain = 0
KAHS 241702Z 18003KT 18/03 A3008 RMK A01 T01800032  RH  037%=      5-min Rain = 0
KAHS 241703Z 17002KT 18/03 A3008 RMK A01 T01780033  RH  038%=      5-min Rain = 0
KAHS 241704Z 18003KT 18/03 A3008 RMK A01 T01760033  RH  038%=      5-min Rain = 0
KAHS 241705Z 18002KT 18/03 A3008 RMK A01 T01750031  RH  038%=      5-min Rain = 0
KAHS 241706Z 18002KT 18/03 A3008 RMK A01 T01750027  RH  037%=      5-min Rain = 0
KAHS 241707Z 17001KT 18/03 A3008 RMK A01 T01750028  RH  037%=      5-min Rain = 0
KAHS 241708Z 20002KT 18/03 A3008 RMK A01 T01770029  RH  037%=      5-min Rain = 0
KAHS 241709Z 22002KT 18/03 A3008 RMK A01 T01770030  RH  037%=      5-min Rain = 0
KAHS 241710Z 20001KT 18/03 A3008 RMK A01 T01760031  RH  038%=      5-min Rain = 0
KAHS 241711Z 20001KT 18/03 A3008 RMK A01 T01750031  RH  038%=      5-min Rain = 0
KAHS 241712Z 22001KT 17/03 A3008 RMK A01 T01740029  RH  038%=      5-min Rain = 0
KAHS 241713Z 18001KT 17/03 A3008 RMK A01 T01730028  RH  038%=      5-min Rain = 0
KAHS 241714Z 14000KT 18/03 A3008 RMK A01 T01750032  RH  038%=      5-min Rain = 0
KAHS 241715Z 21000KT 18/03 A3008 RMK A01 T01770031  RH  037%=      5-min Rain = 0
KAHS 241716Z 12001KT 18/03 A3007 RMK A01 T01800029  RH  037%=      5-min Rain = 0
KAHS 241717Z 12003KT 18/03 A3007 RMK A01 T01810031  RH  037%=      5-min Rain = 0
KAHS 241718Z 13001KT 18/03 A3007 RMK A01 T01780027  RH  036%=      5-min Rain = 0
KAHS 241719Z 10000KT 18/03 A3007 RMK A01 T01780028  RH  037%=      5-min Rain = 0
KAHS 241720Z 13001KT 18/03 A3007 RMK A01 T01800034  RH  038%=      5-min Rain = 0
KAHS 241721Z 10002KT 18/03 A3008 RMK A01 T01810034  RH  037%=      5-min Rain = 0
KAHS 241722Z 09001KT 18/03 A3008 RMK A01 T01810032  RH  037%=      5-min Rain = 0
KAHS 241723Z 12000KT 18/04 A3008 RMK A01 T01830037  RH  038%=      5-min Rain = 0
KAHS 241724Z 16001KT 19/03 A3008 RMK A01 T01850034  RH  036%=      5-min Rain = 0
KAHS 241725Z 27000KT 19/03 A3008 RMK A01 T01870027  RH  034%=      5-min Rain = 0
KAHS 241726Z 01002KT 19/03 A3008 RMK A01 T01880031  RH  035%=      5-min Rain = 0
KAHS 241727Z 04001KT 19/03 A3008 RMK A01 T01870030  RH  035%=      5-min Rain = 0
KAHS 241728Z 13002KT 19/03 A3008 RMK A01 T01870029  RH  035%=      5-min Rain = 0
KAHS 241729Z 16002KT 19/04 A3008 RMK A01 T01910039  RH  036%=      5-min Rain = 0
KAHS 241730Z 17002KT 19/03 A3008 RMK A01 T01930034  RH  035%=      5-min Rain = 0
KAHS 241731Z 16002KT 19/03 A3008 RMK A01 T01920030  RH  034%=      5-min Rain = 0
KAHS 241732Z 12002KT 19/03 A3008 RMK A01 T01940032  RH  034%=      5-min Rain = 0
KAHS 241733Z 10002KT 20/03 A3008 RMK A01 T01960032  RH  034%=      5-min Rain = 0
KAHS 241734Z 08000KT 20/03 A3008 RMK A01 T01990032  RH  033%=      5-min Rain = 0
KAHS 241735Z 11000KT 20/03 A3008 RMK A01 T02000026  RH  031%=      5-min Rain = 0
KAHS 241736Z 00000KT 20/02 A3008 RMK A01 T02010024  RH  031%=      5-min Rain = 0
KAHS 241737Z 19002KT 20/03 A3008 RMK A01 T02020028  RH  031%=      5-min Rain = 0
KAHS 241738Z 22002KT 20/01 A3008 RMK A01 T02000011  RH  028%=      5-min Rain = 0
KAHS 241739Z 21002KT 20/01 A3008 RMK A01 T01950006  RH  028%=      5-min Rain = 0
KAHS 241740Z 20003KT 19/01 A3007 RMK A01 T01930014  RH  030%=      5-min Rain = 0
KAHS 241741Z 20002KT 19/02 A3007 RMK A01 T01910017  RH  031%=      5-min Rain = 0
KAHS 241742Z 19001KT 19/02 A3007 RMK A01 T01900017  RH  031%=      5-min Rain = 0
KAHS 241743Z 21001KT 19/03 A3007 RMK A01 T01930026  RH  033%=      5-min Rain = 0
KAHS 241744Z 14001KT 19/03 A3007 RMK A01 T01940025  RH  032%=      5-min Rain = 0
KAHS 241745Z 11002KT 20/02 A3007 RMK A01 T01950021  RH  031%=      5-min Rain = 0
KAHS 241746Z 11002KT 20/02 A3007 RMK A01 T01960016  RH  030%=      5-min Rain = 0
KAHS 241747Z 19001KT 20/02 A3007 RMK A01 T01970020  RH  031%=      5-min Rain = 0
KAHS 241748Z 19002KT 20/02 A3007 RMK A01 T01970022  RH  031%=      5-min Rain = 0
KAHS 241749Z 19000KT 20/02 A3007 RMK A01 T01980023  RH  031%=      5-min Rain = 0
KAHS 241750Z 14000KT 20/03 A3007 RMK A01 T01990031  RH  033%=      5-min Rain = 0
KAHS 241751Z 07001KT 20/04 A3007 RMK A01 T02020037  RH  034%=      5-min Rain = 0
KAHS 241752Z 10001KT 20/03 A3007 RMK A01 T02000031  RH  033%=      5-min Rain = 0
KAHS 241753Z 09001KT 20/03 A3007 RMK A01 T01980030  RH  033%=      5-min Rain = 0
KAHS 241754Z 13000KT 20/03 A3007 RMK A01 T01970031  RH  033%=      5-min Rain = 0
KAHS 241755Z 35001KT 20/04 A3007 RMK A01 T01990036  RH  034%=      5-min Rain = 0
KAHS 241756Z 36001KT 20/04 A3007 RMK A01 T02010042  RH  035%=      5-min Rain = 0
KAHS 241757Z 00002KT 20/04 A3007 RMK A01 T02010039  RH  035%=      5-min Rain = 0
KAHS 241758Z 01005KT 20/05 A3007 RMK A01 T02020047  RH  036%=      5-min Rain = 0
KAHS 241759Z 01006KT 20/05 A3007 RMK A01 T02020045  RH  036%=      5-min Rain = 0
KAHS 241800Z 01004KT 20/04 A3007 RMK A01 T01990038  RH  035%=      5-min Rain = 0
KAHS 241801Z 01003KT 20/04 A3007 RMK A01 T01980037  RH  035%=      5-min Rain = 0
KAHS 241802Z 01006KT 20/04 A3007 RMK A01 T01960038  RH  035%=      5-min Rain = 0
KAHS 241803Z 01006KT 20/04 A3007 RMK A01 T01950042  RH  036%=      5-min Rain = 0
KAHS 241804Z 01005KT 19/04 A3007 RMK A01 T01940040  RH  036%=      5-min Rain = 0
KAHS 241805Z 00005KT 19/04 A3007 RMK A01 T01940044  RH  037%=      5-min Rain = 0
KAHS 241806Z 02004KT 20/05 A3007 RMK A01 T01970047  RH  037%=      5-min Rain = 0
KAHS 241807Z 03003KT 20/04 A3007 RMK A01 T01970040  RH  035%=      5-min Rain = 0
KAHS 241808Z 04001KT 20/04 A3007 RMK A01 T01980042  RH  036%=      5-min Rain = 0
KAHS 241809Z 32003KT 20/04 A3007 RMK A01 T01980043  RH  036%=      5-min Rain = 0
KAHS 241810Z 33003KT 20/04 A3007 RMK A01 T01970042  RH  036%=      5-min Rain = 0
KAHS 241811Z 31002KT 20/04 A3007 RMK A01 T01950040  RH  036%=      5-min Rain = 0
KAHS 241812Z 32004KT 20/05 A3007 RMK A01 T01970049  RH  038%=      5-min Rain = 0
KAHS 241813Z 32004KT 20/04 A3007 RMK A01 T01960040  RH  036%=      5-min Rain = 0
KAHS 241814Z 34005KT 20/04 A3007 RMK A01 T01950043  RH  037%=      5-min Rain = 0
KAHS 241815Z 33003KT 20/04 A3007 RMK A01 T01960039  RH  036%=      5-min Rain = 0
KAHS 241816Z 33003KT 20/04 A3007 RMK A01 T01950038  RH  035%=      5-min Rain = 0
KAHS 241817Z 34003KT 20/04 A3007 RMK A01 T01950038  RH  035%=      5-min Rain = 0
KAHS 241818Z 30002KT 20/04 A3007 RMK A01 T01960038  RH  035%=      5-min Rain = 0
KAHS 241819Z 27001KT 20/04 A3007 RMK A01 T01980038  RH  035%=      5-min Rain = 0
KAHS 241820Z 20001KT 20/05 A3007 RMK A01 T02000045  RH  036%=      5-min Rain = 0
KAHS 241821Z 28000KT 20/04 A3007 RMK A01 T02020043  RH  035%=      5-min Rain = 0
KAHS 241822Z 22000KT 21/06 A3007 RMK A01 T02060057  RH  038%=      5-min Rain = 0
KAHS 241823Z 18000KT 21/05 A3007 RMK A01 T02100050  RH  035%=      5-min Rain = 0
KAHS 241824Z 19001KT 21/05 A3006 RMK A01 T02110047  RH  034%=      5-min Rain = 0
KAHS 241825Z 18001KT 21/05 A3006 RMK A01 T02130045  RH  033%=      5-min Rain = 0
KAHS 241826Z 18003KT 21/04 A3006 RMK A01 T02110038  RH  032%=      5-min Rain = 0
KAHS 241827Z 19003KT 21/04 A3006 RMK A01 T02090040  RH  033%=      5-min Rain = 0
KAHS 241828Z 19002KT 20/04 A3006 RMK A01 T02040037  RH  033%=      5-min Rain = 0
KAHS 241829Z 23001KT 21/04 A3006 RMK A01 T02050043  RH  034%=      5-min Rain = 0
KAHS 241830Z 25004KT 21/04 A3006 RMK A01 T02070043  RH  034%=      5-min Rain = 0
KAHS 241831Z 26003KT 21/04 A3006 RMK A01 T02050040  RH  034%=      5-min Rain = 0
KAHS 241832Z 26004KT 21/05 A3006 RMK A01 T02060047  RH  035%=      5-min Rain = 0
KAHS 241833Z 25003KT 21/04 A3006 RMK A01 T02070043  RH  034%=      5-min Rain = 0
KAHS 241834Z 24004KT 21/05 A3006 RMK A01 T02090049  RH  035%=      5-min Rain = 0
KAHS 241835Z 25004KT 21/04 A3006 RMK A01 T02080044  RH  034%=      5-min Rain = 0
KAHS 241836Z 24001KT 21/04 A3006 RMK A01 T02080040  RH  033%=      5-min Rain = 0
KAHS 241837Z 00000KT 21/04 A3006 RMK A01 T02090037  RH  032%=      5-min Rain = 0
KAHS 241838Z 25002KT 21/04 A3006 RMK A01 T02100040  RH  033%=      5-min Rain = 0
KAHS 241839Z 26004KT 21/04 A3006 RMK A01 T02090042  RH  033%=      5-min Rain = 0
KAHS 241840Z 27002KT 21/04 A3006 RMK A01 T02080040  RH  033%=      5-min Rain = 0
KAHS 241841Z 24000KT 21/04 A3006 RMK A01 T02080044  RH  034%=      5-min Rain = 0
KAHS 241842Z 22000KT 21/05 A3006 RMK A01 T02110046  RH  034%=      5-min Rain = 0
KAHS 241843Z 27002KT 22/05 A3006 RMK A01 T02150053  RH  035%=      5-min Rain = 0
KAHS 241844Z 23004KT 22/05 A3006 RMK A01 T02160050  RH  034%=      5-min Rain = 0
KAHS 241845Z 20003KT 21/05 A3006 RMK A01 T02140046  RH  033%=      5-min Rain = 0
KAHS 241846Z 18003KT 21/05 A3006 RMK A01 T02140045  RH  033%=      5-min Rain = 0
KAHS 241847Z 18003KT 21/04 A3006 RMK A01 T02130044  RH  033%=      5-min Rain = 0
KAHS 241848Z 18002KT 22/05 A3006 RMK A01 T02160050  RH  034%=      5-min Rain = 0
KAHS 241849Z 21001KT 22/05 A3006 RMK A01 T02190050  RH  033%=      5-min Rain = 0
KAHS 241850Z 27001KT 22/05 A3006 RMK A01 T02220050  RH  033%=      5-min Rain = 0
KAHS 241851Z 29001KT 22/04 A3006 RMK A01 T02210041  RH  031%=      5-min Rain = 0
KAHS 241852Z 09002KT 22/04 A3005 RMK A01 T02210044  RH  031%=      5-min Rain = 0
KAHS 241853Z 12004KT 22/05 A3005 RMK A01 T02200045  RH  032%=      5-min Rain = 0
KAHS 241854Z 11002KT 22/05 A3005 RMK A01 T02200048  RH  032%=      5-min Rain = 0
KAHS 241855Z 10000KT 22/04 A3005 RMK A01 T02210044  RH  031%=      5-min Rain = 0
KAHS 241856Z 04001KT 22/04 A3005 RMK A01 T02200042  RH  031%=      5-min Rain = 0
KAHS 241857Z 06001KT 22/04 A3005 RMK A01 T02200040  RH  031%=      5-min Rain = 0
KAHS 241858Z 08001KT 22/04 A3005 RMK A01 T02190041  RH  031%=      5-min Rain = 0
KAHS 241859Z 25001KT 22/04 A3005 RMK A01 T02200042  RH  031%=      5-min Rain = 0
KAHS 241900Z 24004KT 22/05 A3005 RMK A01 T02190045  RH  032%=      5-min Rain = 0
KAHS 241901Z 22002KT 22/05 A3005 RMK A01 T02180046  RH  033%=      5-min Rain = 0
KAHS 241902Z 20001KT 22/05 A3005 RMK A01 T02190047  RH  033%=      5-min Rain = 0
KAHS 241903Z 22001KT 22/05 A3005 RMK A01 T02210053  RH  033%=      5-min Rain = 0
KAHS 241904Z 30001KT 22/05 A3005 RMK A01 T02240052  RH  033%=      5-min Rain = 0
KAHS 241905Z 27000KT 22/05 A3005 RMK A01 T02240047  RH  032%=      5-min Rain = 0
KAHS 241906Z 25000KT 22/05 A3004 RMK A01 T02230047  RH  032%=      5-min Rain = 0
KAHS 241907Z 26002KT 22/05 A3004 RMK A01 T02240053  RH  033%=      5-min Rain = 0
KAHS 241908Z 23004KT 23/06 A3004 RMK A01 T02250055  RH  033%=      5-min Rain = 0
KAHS 241909Z 21002KT 22/05 A3004 RMK A01 T02220049  RH  032%=      5-min Rain = 0
KAHS 241910Z 24003KT 22/06 A3004 RMK A01 T02220057  RH  034%=      5-min Rain = 0
KAHS 241911Z 25005KT 22/06 A3004 RMK A01 T02210055  RH  034%=      5-min Rain = 0
KAHS 241912Z 26003KT 22/06 A3004 RMK A01 T02220061  RH  035%=      5-min Rain = 0
KAHS 241913Z 28003KT 22/05 A3004 RMK A01 T02230054  RH  033%=      5-min Rain = 0
KAHS 241914Z 28003KT 22/06 A3004 RMK A01 T02220055  RH  034%=      5-min Rain = 0
KAHS 241915Z 23004KT 22/06 A3004 RMK A01 T02230060  RH  035%=      5-min Rain = 0
KAHS 241916Z 18004KT 22/06 A3004 RMK A01 T02240057  RH  034%=      5-min Rain = 0
KAHS 241917Z 16003KT 23/06 A3004 RMK A01 T02250057  RH  034%=      5-min Rain = 0
KAHS 241918Z 15003KT 22/05 A3004 RMK A01 T02240050  RH  032%=      5-min Rain = 0
KAHS 241919Z 19002KT 22/06 A3004 RMK A01 T02240055  RH  033%=      5-min Rain = 0
KAHS 241920Z 19004KT 23/07 A3004 RMK A01 T02280066  RH  035%=      5-min Rain = 0
KAHS 241921Z 18004KT 23/06 A3004 RMK A01 T02280056  RH  033%=      5-min Rain = 0
KAHS 241922Z 16003KT 23/05 A3004 RMK A01 T02270054  RH  033%=      5-min Rain = 0
KAHS 241923Z 18003KT 23/06 A3004 RMK A01 T02280055  RH  032%=      5-min Rain = 0
KAHS 241924Z 18001KT 23/05 A3004 RMK A01 T02280053  RH  032%=      5-min Rain = 0
KAHS 241925Z 19004KT 23/06 A3004 RMK A01 T02290058  RH  033%=      5-min Rain = 0
KAHS 241926Z 17002KT 23/06 A3004 RMK A01 T02280055  RH  033%=      5-min Rain = 0
KAHS 241927Z 05001KT 23/05 A3003 RMK A01 T02260052  RH  032%=      5-min Rain = 0
KAHS 241928Z 08000KT 23/05 A3003 RMK A01 T02270054  RH  033%=      5-min Rain = 0
KAHS 241929Z 21003KT 23/06 A3003 RMK A01 T02290055  RH  032%=      5-min Rain = 0
KAHS 241930Z 24002KT 23/05 A3003 RMK A01 T02280053  RH  032%=      5-min Rain = 0
KAHS 241931Z 25002KT 23/05 A3003 RMK A01 T02270051  RH  032%=      5-min Rain = 0
KAHS 241932Z 35001KT 23/05 A3003 RMK A01 T02270050  RH  032%=      5-min Rain = 0
KAHS 241933Z 22002KT 23/06 A3003 RMK A01 T02290056  RH  033%=      5-min Rain = 0
KAHS 241934Z 19002KT 23/05 A3003 RMK A01 T02300053  RH  032%=      5-min Rain = 0
KAHS 241935Z 18004KT 23/05 A3003 RMK A01 T02310054  RH  032%=      5-min Rain = 0
KAHS 241936Z 18004KT 23/06 A3003 RMK A01 T02340060  RH  032%=      5-min Rain = 0
KAHS 241937Z 15004KT 24/06 A3003 RMK A01 T02370063  RH  033%=      5-min Rain = 0
KAHS 241938Z 17005KT 24/05 A3003 RMK A01 T02380053  RH  030%=      5-min Rain = 0
KAHS 241939Z 18003KT 24/05 A3003 RMK A01 T02350051  RH  030%=      5-min Rain = 0
KAHS 241940Z 16001KT 23/05 A3003 RMK A01 T02340048  RH  030%=      5-min Rain = 0
KAHS 241941Z 16001KT 24/05 A3002 RMK A01 T02370052  RH  030%=      5-min Rain = 0
KAHS 241942Z 15005KT 24/05 A3002 RMK A01 T02390054  RH  030%=      5-min Rain = 0
KAHS 241943Z 15002KT 24/05 A3002 RMK A01 T02370052  RH  030%=      5-min Rain = 0
KAHS 241944Z 14004KT 24/06 A3002 RMK A01 T02370055  RH  031%=      5-min Rain = 0
KAHS 241945Z 13003KT 24/05 A3002 RMK A01 T02370053  RH  030%=      5-min Rain = 0
KAHS 241946Z 13003KT 24/06 A3002 RMK A01 T02370055  RH  031%=      5-min Rain = 0
KAHS 241947Z 13002KT 24/05 A3002 RMK A01 T02370054  RH  031%=      5-min Rain = 0
KAHS 241948Z 13001KT 24/05 A3002 RMK A01 T02380052  RH  030%=      5-min Rain = 0
KAHS 241949Z 16000KT 24/05 A3002 RMK A01 T02390051  RH  029%=      5-min Rain = 0
KAHS 241950Z 21000KT 24/05 A3002 RMK A01 T02410054  RH  030%=      5-min Rain = 0
KAHS 241951Z 24002KT 24/06 A3002 RMK A01 T02430056  RH  030%=      5-min Rain = 0
KAHS 241952Z 25002KT 24/05 A3002 RMK A01 T02430052  RH  029%=      5-min Rain = 0
KAHS 241953Z 30002KT 24/05 A3002 RMK A01 T02410051  RH  029%=      5-min Rain = 0
KAHS 241954Z 29002KT 24/05 A3002 RMK A01 T02390051  RH  030%=      5-min Rain = 0
KAHS 241955Z 27003KT 24/05 A3002 RMK A01 T02370052  RH  030%=      5-min Rain = 0
KAHS 241956Z 25003KT 24/05 A3002 RMK A01 T02370053  RH  030%=      5-min Rain = 0
KAHS 241957Z 23001KT 24/05 A3002 RMK A01 T02370054  RH  031%=      5-min Rain = 0
KAHS 241958Z 22002KT 24/06 A3002 RMK A01 T02390059  RH  031%=      5-min Rain = 0
KAHS 241959Z 21003KT 24/06 A3002 RMK A01 T02390056  RH  031%=      5-min Rain = 0
KAHS 242000Z 22001KT 24/05 A3002 RMK A01 T02380054  RH  030%=      5-min Rain = 0
KAHS 242001Z 25000KT 24/05 A3002 RMK A01 T02380053  RH  030%=      5-min Rain = 0
KAHS 242002Z 10001KT 24/05 A3002 RMK A01 T02380051  RH  030%=      5-min Rain = 0
KAHS 242003Z 11002KT 24/05 A3002 RMK A01 T02380049  RH  029%=      5-min Rain = 0
KAHS 242004Z 10002KT 24/05 A3002 RMK A01 T02370049  RH  030%=      5-min Rain = 0
KAHS 242005Z 09001KT 24/05 A3002 RMK A01 T02360052  RH  030%=      5-min Rain = 0
KAHS 242006Z 32001KT 24/06 A3002 RMK A01 T02380063  RH  032%=      5-min Rain = 0
KAHS 242007Z 35002KT 24/06 A3002 RMK A01 T02420061  RH  031%=      5-min Rain = 0
KAHS 242008Z 35004KT 24/06 A3002 RMK A01 T02430055  RH  030%=      5-min Rain = 0
KAHS 242009Z 34004KT 24/05 A3002 RMK A01 T02420052  RH  029%=      5-min Rain = 0
KAHS 242010Z 00005KT 24/05 A3002 RMK A01 T02420053  RH  030%=      5-min Rain = 0
KAHS 242011Z 00006KT 24/06 A3002 RMK A01 T02410056  RH  030%=      5-min Rain = 0
KAHS 242012Z 03005KT 24/06 A3002 RMK A01 T02410055  RH  030%=      5-min Rain = 0
KAHS 242013Z 03006KT 24/05 A3002 RMK A01 T02400053  RH  030%=      5-min Rain = 0
KAHS 242014Z 02006G11KT 24/06 A3001 RMK A01 T02400055  RH  030%=      5-min Rain = 0
KAHS 242015Z 07003KT 24/05 A3001 RMK A01 T02390052  RH  030%=      5-min Rain = 0
KAHS 242016Z 05003KT 24/05 A3001 RMK A01 T02390053  RH  030%=      5-min Rain = 0
KAHS 242017Z 07004KT 24/06 A3001 RMK A01 T02390055  RH  030%=      5-min Rain = 0
KAHS 242018Z 02005KT 24/06 A3001 RMK A01 T02420064  RH  032%=      5-min Rain = 0
KAHS 242019Z 03003KT 24/05 A3001 RMK A01 T02440054  RH  029%=      5-min Rain = 0
KAHS 242020Z 03004KT 24/06 A3001 RMK A01 T02430056  RH  030%=      5-min Rain = 0
KAHS 242021Z 03004KT 24/05 A3001 RMK A01 T02410053  RH  030%=      5-min Rain = 0
KAHS 242022Z 04004KT 24/05 A3001 RMK A01 T02400053  RH  030%=      5-min Rain = 0
KAHS 242023Z 01006KT 24/06 A3001 RMK A01 T02410056  RH  030%=      5-min Rain = 0
KAHS 242024Z 32003KT 24/05 A3001 RMK A01 T02410051  RH  029%=      5-min Rain = 0
KAHS 242025Z 29001KT 24/05 A3001 RMK A01 T02400052  RH  030%=      5-min Rain = 0
KAHS 242026Z 35004KT 24/06 A3001 RMK A01 T02430058  RH  030%=      5-min Rain = 0
KAHS 242027Z 01004KT 25/06 A3001 RMK A01 T02450058  RH  030%=      5-min Rain = 0
KAHS 242028Z 07002KT 25/06 A3001 RMK A01 T02450058  RH  030%=      5-min Rain = 0
KAHS 242029Z 03003KT 24/05 A3001 RMK A01 T02440050  RH  029%=      5-min Rain = 0
KAHS 242030Z 01004KT 24/05 A3001 RMK A01 T02430052  RH  029%=      5-min Rain = 0
KAHS 242031Z 01005KT 24/06 A3001 RMK A01 T02440056  RH  030%=      5-min Rain = 0
KAHS 242032Z 01004KT 24/05 A3001 RMK A01 T02440054  RH  029%=      5-min Rain = 0
KAHS 242033Z 34005KT 24/06 A3001 RMK A01 T02440055  RH  030%=      5-min Rain = 0
KAHS 242034Z 33007KT 24/06 A3001 RMK A01 T02420057  RH  030%=      5-min Rain = 0
KAHS 242035Z 34006KT 24/05 A3001 RMK A01 T02420054  RH  030%=      5-min Rain = 0
KAHS 242036Z 32004KT 24/05 A3001 RMK A01 T02410054  RH  030%=      5-min Rain = 0
KAHS 242037Z 34004KT 24/05 A3001 RMK A01 T02410052  RH  029%=      5-min Rain = 0
KAHS 242038Z 34001KT 24/05 A3001 RMK A01 T02410054  RH  030%=      5-min Rain = 0
KAHS 242039Z 02003KT 25/06 A30 RMK A01 T02450063  RH  031%=      5-min Rain = 0
KAHS 242040Z 02005KT 25/06 A30 RMK A01 T02470058  RH  030%=      5-min Rain = 0
KAHS 242041Z 03004KT 25/06 A30 RMK A01 T02480055  RH  029%=      5-min Rain = 0
KAHS 242042Z 04003KT 25/06 A30 RMK A01 T02470056  RH  029%=      5-min Rain = 0
KAHS 242043Z 03003KT 25/06 A30 RMK A01 T02490060  RH  030%=      5-min Rain = 0
KAHS 242044Z 36005KT 25/06 A30 RMK A01 T02490058  RH  029%=      5-min Rain = 0
KAHS 242045Z 35004KT 25/05 A30 RMK A01 T02460051  RH  028%=      5-min Rain = 0
KAHS 242046Z 34006KT 25/06 A30 RMK A01 T02450055  RH  029%=      5-min Rain = 0
KAHS 242047Z 33004KT 24/06 A30 RMK A01 T02430058  RH  030%=      5-min Rain = 0
KAHS 242048Z 32006KT 25/06 A30 RMK A01 T02450059  RH  030%=      5-min Rain = 0
KAHS 242049Z 34005KT 25/06 A30 RMK A01 T02450055  RH  029%=      5-min Rain = 0
KAHS 242050Z 34005KT 25/05 A30 RMK A01 T02450054  RH  029%=      5-min Rain = 0
KAHS 242051Z 32004KT 25/06 A30 RMK A01 T02460057  RH  030%=      5-min Rain = 0
KAHS 242052Z 32006KT 25/06 A30 RMK A01 T02480060  RH  030%=      5-min Rain = 0
KAHS 242053Z 31005KT 25/06 A30 RMK A01 T02480060  RH  030%=      5-min Rain = 0
KAHS 242054Z 30003KT 25/06 A30 RMK A01 T02460056  RH  029%=      5-min Rain = 0
KAHS 242055Z 30003KT 25/06 A30 RMK A01 T02470058  RH  030%=      5-min Rain = 0
KAHS 242056Z 29001KT 25/06 A30 RMK A01 T02480056  RH  029%=      5-min Rain = 0
KAHS 242057Z 25003KT 25/06 A30 RMK A01 T02490055  RH  029%=      5-min Rain = 0
KAHS 242058Z 25002KT 25/05 A30 RMK A01 T02480050  RH  028%=      5-min Rain = 0
KAHS 242059Z 27002KT 25/05 A30 RMK A01 T02480051  RH  028%=      5-min Rain = 0
KAHS 242100Z 23002KT 25/05 A30 RMK A01 T02490051  RH  028%=      5-min Rain = 0
KAHS 242101Z 20001KT 25/05 A30 RMK A01 T02510053  RH  028%=      5-min Rain = 0
KAHS 242102Z 16001KT 25/05 A30 RMK A01 T02530051  RH  027%=      5-min Rain = 0
KAHS 242103Z 33000KT 26/05 A30 RMK A01 T02550050  RH  027%=      5-min Rain = 0
KAHS 242104Z 33003KT 26/06 A30 RMK A01 T02580061  RH  028%=      5-min Rain = 0
KAHS 242105Z 33003KT 26/06 A30 RMK A01 T02580055  RH  027%=      5-min Rain = 0
KAHS 242106Z 33004KT 26/06 A30 RMK A01 T02560055  RH  027%=      5-min Rain = 0
KAHS 242107Z 34003KT 25/05 A30 RMK A01 T02530049  RH  027%=      5-min Rain = 0
KAHS 242108Z 35003KT 25/05 A30 RMK A01 T02510054  RH  028%=      5-min Rain = 0
KAHS 242109Z 01003KT 25/05 A30 RMK A01 T02510052  RH  028%=      5-min Rain = 0
KAHS 242110Z 34001KT 25/05 A30 RMK A01 T02510049  RH  027%=      5-min Rain = 0
KAHS 242111Z 00001KT 25/05 A30 RMK A01 T02510051  RH  027%=      5-min Rain = 0
KAHS 242112Z 34000KT 25/05 A30 RMK A01 T02510048  RH  027%=      5-min Rain = 0
KAHS 242113Z 22000KT 25/05 A30 RMK A01 T02520048  RH  027%=      5-min Rain = 0
KAHS 242114Z 17002KT 25/05 A30 RMK A01 T02540048  RH  027%=      5-min Rain = 0
KAHS 242115Z 15003KT 25/05 A30 RMK A01 T02530047  RH  026%=      5-min Rain = 0
KAHS 242116Z 09002KT 25/04 A30 RMK A01 T02530043  RH  026%=      5-min Rain = 0
KAHS 242117Z 15002KT 25/05 A30 RMK A01 T02530048  RH  027%=      5-min Rain = 0
KAHS 242118Z 16002KT 25/05 A30 RMK A01 T02520046  RH  026%=      5-min Rain = 0
KAHS 242119Z 13003KT 25/04 A2999 RMK A01 T02510043  RH  026%=      5-min Rain = 0
KAHS 242120Z 15003KT 25/05 A2999 RMK A01 T02500046  RH  027%=      5-min Rain = 0
KAHS 242121Z 15001KT 25/04 A2999 RMK A01 T02510042  RH  026%=      5-min Rain = 0
KAHS 242122Z 16000KT 25/05 A2999 RMK A01 T02530045  RH  026%=      5-min Rain = 0
KAHS 242123Z 10001KT 25/05 A2999 RMK A01 T02540047  RH  026%=      5-min Rain = 0
KAHS 242124Z 08000KT 26/05 A2999 RMK A01 T02560045  RH  026%=      5-min Rain = 0
KAHS 242125Z 08000KT 26/05 A2999 RMK A01 T02570048  RH  026%=      5-min Rain = 0
KAHS 242126Z 35001KT 26/05 A2999 RMK A01 T02590054  RH  027%=      5-min Rain = 0
KAHS 242127Z 35004KT 26/05 A2999 RMK A01 T02600054  RH  027%=      5-min Rain = 0
KAHS 242128Z 34006KT 26/06 A2999 RMK A01 T02580057  RH  027%=      5-min Rain = 0
KAHS 242129Z 34006KT 26/06 A2999 RMK A01 T02570059  RH  028%=      5-min Rain = 0
KAHS 242130Z 33005KT 25/05 A2999 RMK A01 T02540047  RH  026%=      5-min Rain = 0
KAHS 242131Z 33008KT 25/05 A2999 RMK A01 T02510052  RH  028%=      5-min Rain = 0
KAHS 242132Z 32006KT 25/05 A2999 RMK A01 T02490049  RH  028%=      5-min Rain = 0
KAHS 242133Z 33008KT 25/05 A2999 RMK A01 T02470053  RH  029%=      5-min Rain = 0
KAHS 242134Z 34006KT 25/05 A2999 RMK A01 T02450054  RH  029%=      5-min Rain = 0
KAHS 242135Z 36005KT 25/05 A2999 RMK A01 T02460053  RH  029%=      5-min Rain = 0
KAHS 242136Z 35003KT 25/05 A2999 RMK A01 T02450049  RH  028%=      5-min Rain = 0
KAHS 242137Z 01005KT 25/05 A2999 RMK A01 T02460053  RH  029%=      5-min Rain = 0
KAHS 242138Z 35004KT 25/05 A2999 RMK A01 T02460050  RH  028%=      5-min Rain = 0
KAHS 242139Z 35004KT 25/05 A2999 RMK A01 T02450047  RH  028%=      5-min Rain = 0
KAHS 242140Z 00005KT 25/04 A2999 RMK A01 T02450044  RH  027%=      5-min Rain = 0
KAHS 242141Z 36005KT 25/05 A2999 RMK A01 T02450047  RH  028%=      5-min Rain = 0
KAHS 242142Z 35005KT 25/05 A2999 RMK A01 T02470049  RH  028%=      5-min Rain = 0
KAHS 242143Z 34006KT 25/05 A2999 RMK A01 T02480050  RH  028%=      5-min Rain = 0
KAHS 242144Z 35007KT 25/05 A2999 RMK A01 T02480051  RH  028%=      5-min Rain = 0
KAHS 242145Z 35006KT 25/05 A2999 RMK A01 T02470047  RH  027%=      5-min Rain = 0
KAHS 242146Z 35004KT 25/05 A2999 RMK A01 T02480051  RH  028%=      5-min Rain = 0
KAHS 242147Z 00004KT 25/06 A2999 RMK A01 T02510057  RH  029%=      5-min Rain = 0
KAHS 242148Z 00005KT 25/06 A2999 RMK A01 T02540055  RH  028%=      5-min Rain = 0
KAHS 242149Z 36007KT 26/05 A2999 RMK A01 T02550050  RH  027%=      5-min Rain = 0
KAHS 242150Z 01005KT 25/04 A2999 RMK A01 T02540041  RH  025%=      5-min Rain = 0
KAHS 242151Z 01005KT 25/05 A2999 RMK A01 T02540048  RH  027%=      5-min Rain = 0
KAHS 242152Z 36007KT 26/05 A2999 RMK A01 T02560052  RH  027%=      5-min Rain = 0
KAHS 242153Z 00006KT 26/05 A2999 RMK A01 T02570046  RH  026%=      5-min Rain = 0
KAHS 242154Z 36004KT 26/04 A2999 RMK A01 T02570043  RH  025%=      5-min Rain = 0
KAHS 242155Z 01003KT 26/05 A2999 RMK A01 T02580051  RH  026%=      5-min Rain = 0
KAHS 242156Z 35005KT 26/05 A2999 RMK A01 T02590049  RH  026%=      5-min Rain = 0
KAHS 242157Z 34006KT 26/05 A2999 RMK A01 T02590045  RH  025%=      5-min Rain = 0
KAHS 242158Z 33005KT 26/04 A2999 RMK A01 T02560037  RH  024%=      5-min Rain = 0
KAHS 242159Z 00007KT 26/04 A2999 RMK A01 T02560043  RH  025%=      5-min Rain = 0
KAHS 242200Z 01006KT 26/05 A2999 RMK A01 T02570045  RH  026%=      5-min Rain = 0
KAHS 242201Z 02004KT 26/04 A2999 RMK A01 T02580042  RH  025%=      5-min Rain = 0
KAHS 242202Z 01005KT 26/04 A2999 RMK A01 T02580036  RH  024%=      5-min Rain = 0
KAHS 242203Z 02004KT 26/04 A2999 RMK A01 T02570037  RH  024%=      5-min Rain = 0
KAHS 242204Z 05005KT 26/04 A2999 RMK A01 T02570039  RH  024%=      5-min Rain = 0
KAHS 242205Z 05003KT 26/03 A2999 RMK A01 T02550034  RH  024%=      5-min Rain = 0
KAHS 242206Z 04001KT 26/04 A2999 RMK A01 T02560035  RH  024%=      5-min Rain = 0
KAHS 242207Z 03003KT 26/04 A2999 RMK A01 T02560035  RH  024%=      5-min Rain = 0
KAHS 242208Z 03003KT 26/03 A2999 RMK A01 T02560034  RH  024%=      5-min Rain = 0
KAHS 242209Z 02004KT 26/04 A2999 RMK A01 T02570044  RH  025%=      5-min Rain = 0
KAHS 242210Z 02004KT 26/04 A2999 RMK A01 T02580040  RH  025%=      5-min Rain = 0
KAHS 242211Z 05004KT 26/05 A2999 RMK A01 T02580046  RH  025%=      5-min Rain = 0
KAHS 242212Z 03007KT 26/04 A2999 RMK A01 T02580042  RH  025%=      5-min Rain = 0
KAHS 242213Z 02005KT 26/03 A2999 RMK A01 T02570031  RH  023%=      5-min Rain = 0
KAHS 242214Z 00004KT 26/03 A2999 RMK A01 T02560032  RH  024%=      5-min Rain = 0
KAHS 242215Z 02005KT 26/04 A2999 RMK A01 T02570039  RH  025%=      5-min Rain = 0
KAHS 242216Z 03007KT 26/04 A2999 RMK A01 T02560036  RH  024%=      5-min Rain = 0
KAHS 242217Z 03003KT 26/04 A2999 RMK A01 T02550035  RH  024%=      5-min Rain = 0
KAHS 242218Z 04003KT 26/04 A2999 RMK A01 T02560040  RH  025%=      5-min Rain = 0
KAHS 242219Z 05003KT 26/04 A2999 RMK A01 T02570039  RH  024%=      5-min Rain = 0
KAHS 242220Z 04006KT 26/05 A2999 RMK A01 T02590045  RH  025%=      5-min Rain = 0
KAHS 242221Z 02007KT 26/04 A2999 RMK A01 T02590038  RH  024%=      5-min Rain = 0
KAHS 242222Z 02006KT 26/04 A2999 RMK A01 T02580042  RH  025%=      5-min Rain = 0
KAHS 242223Z 00006KT 26/04 A2999 RMK A01 T02570036  RH  024%=      5-min Rain = 0
KAHS 242224Z 35007KT 26/04 A2999 RMK A01 T02570039  RH  024%=      5-min Rain = 0
KAHS 242225Z 00005KT 26/04 A2999 RMK A01 T02570035  RH  024%=      5-min Rain = 0
KAHS 242226Z 02006KT 26/04 A2999 RMK A01 T02570039  RH  024%=      5-min Rain = 0
KAHS 242227Z 04006KT 26/04 A2999 RMK A01 T02570040  RH  025%=      5-min Rain = 0
KAHS 242228Z 02007KT 26/04 A2999 RMK A01 T02570038  RH  024%=      5-min Rain = 0
KAHS 242229Z 01004KT 26/04 A2999 RMK A01 T02560036  RH  024%=      5-min Rain = 0
KAHS 242230Z 01006KT 26/04 A2999 RMK A01 T02570036  RH  024%=      5-min Rain = 0
KAHS 242231Z 03006KT 26/04 A2999 RMK A01 T02570037  RH  024%=      5-min Rain = 0
KAHS 242232Z 03007KT 26/04 A2999 RMK A01 T02580036  RH  024%=      5-min Rain = 0
KAHS 242233Z 02006KT 26/03 A2999 RMK A01 T02560027  RH  023%=      5-min Rain = 0
KAHS 242234Z 02006KT 26/03 A2999 RMK A01 T02550029  RH  023%=      5-min Rain = 0
KAHS 242235Z 03005KT 26/03 A2999 RMK A01 T02550032  RH  023%=      5-min Rain = 0
KAHS 242236Z 01005KT 26/03 A2999 RMK A01 T02560034  RH  024%=      5-min Rain = 0
KAHS 242237Z 01005KT 26/03 A2999 RMK A01 T02570030  RH  023%=      5-min Rain = 0
KAHS 242238Z 01008KT 26/03 A2999 RMK A01 T02560034  RH  024%=      5-min Rain = 0
KAHS 242239Z 01007KT 26/03 A2999 RMK A01 T02560034  RH  024%=      5-min Rain = 0
KAHS 242240Z 01007KT 26/03 A2999 RMK A01 T02560034  RH  024%=      5-min Rain = 0
KAHS 242241Z 02008KT 26/03 A2999 RMK A01 T02560034  RH  024%=      5-min Rain = 0
KAHS 242242Z 03006KT 26/03 A2999 RMK A01 T02550034  RH  024%=      5-min Rain = 0
KAHS 242243Z 03007KT 26/03 A2999 RMK A01 T02560033  RH  024%=      5-min Rain = 0
KAHS 242244Z 03005KT 26/03 A2999 RMK A01 T02550029  RH  023%=      5-min Rain = 0
KAHS 242245Z 01005KT 26/03 A2999 RMK A01 T02550031  RH  023%=      5-min Rain = 0
KAHS 242246Z 03007KT 26/03 A2999 RMK A01 T02550031  RH  023%=      5-min Rain = 0
KAHS 242247Z 02007KT 26/03 A2999 RMK A01 T02550026  RH  023%=      5-min Rain = 0
KAHS 242248Z 01006KT 25/03 A2999 RMK A01 T02540028  RH  023%=      5-min Rain = 0
KAHS 242249Z 02005KT 25/03 A2999 RMK A01 T02540028  RH  023%=      5-min Rain = 0
KAHS 242250Z 02005KT 26/04 A2999 RMK A01 T02550036  RH  024%=      5-min Rain = 0
KAHS 242251Z 02004KT 26/03 A2999 RMK A01 T02570033  RH  024%=      5-min Rain = 0
KAHS 242252Z 05003KT 26/04 A2999 RMK A01 T02570035  RH  024%=      5-min Rain = 0
KAHS 242253Z 02007KT 26/03 A2999 RMK A01 T02580034  RH  024%=      5-min Rain = 0
KAHS 242254Z 02006KT 26/03 A2999 RMK A01 T02580033  RH  023%=      5-min Rain = 0
KAHS 242255Z 01006KT 26/03 A2999 RMK A01 T02560028  RH  023%=      5-min Rain = 0
KAHS 242256Z 00005KT 26/03 A2999 RMK A01 T02560030  RH  023%=      5-min Rain = 0
KAHS 242257Z 00005KT 26/03 A2999 RMK A01 T02560030  RH  023%=      5-min Rain = 0
KAHS 242258Z 01003KT 26/03 A2999 RMK A01 T02560025  RH  022%=      5-min Rain = 0
KAHS 242259Z 02003KT 26/03 A2999 RMK A01 T02550027  RH  023%=      5-min Rain = 0
KAHS 242300Z 02005KT 26/03 A2999 RMK A01 T02550028  RH  023%=      5-min Rain = 0
KAHS 242301Z 04005KT 26/03 A2999 RMK A01 T02550029  RH  023%=      5-min Rain = 0
KAHS 242302Z 06004KT 26/03 A2999 RMK A01 T02550029  RH  023%=      5-min Rain = 0
KAHS 242303Z 09002KT 25/02 A2999 RMK A01 T02540023  RH  022%=      5-min Rain = 0
KAHS 242304Z 09003KT 25/03 A2999 RMK A01 T02540025  RH  023%=      5-min Rain = 0
KAHS 242305Z 07003KT 25/03 A2999 RMK A01 T02540025  RH  023%=      5-min Rain = 0
KAHS 242306Z 07004KT 25/03 A2999 RMK A01 T02540028  RH  023%=      5-min Rain = 0
KAHS 242307Z 08004KT 26/03 A2999 RMK A01 T02550033  RH  024%=      5-min Rain = 0
KAHS 242308Z 09004KT 26/03 A2999 RMK A01 T02560029  RH  023%=      5-min Rain = 0
KAHS 242309Z 06003KT 26/03 A2999 RMK A01 T02550029  RH  023%=      5-min Rain = 0
KAHS 242310Z 03005KT 26/03 A2999 RMK A01 T02560028  RH  023%=      5-min Rain = 0
KAHS 242311Z 03004KT 26/03 A2999 RMK A01 T02550026  RH  023%=      5-min Rain = 0
KAHS 242312Z 04003KT 25/03 A2999 RMK A01 T02540027  RH  023%=      5-min Rain = 0
KAHS 242313Z 04002KT 26/02 A2999 RMK A01 T02550024  RH  022%=      5-min Rain = 0
KAHS 242314Z 02001KT 26/02 A2999 RMK A01 T02550024  RH  022%=      5-min Rain = 0
KAHS 242315Z 03000KT 26/02 A2999 RMK A01 T02560022  RH  022%=      5-min Rain = 0
KAHS 242316Z 35000KT 26/02 A2999 RMK A01 T02570024  RH  022%=      5-min Rain = 0
KAHS 242317Z 35000KT 26/03 A2999 RMK A01 T02590031  RH  023%=      5-min Rain = 0
KAHS 242318Z 00000KT 26/03 A2999 RMK A01 T02610026  RH  022%=      5-min Rain = 0
KAHS 242319Z 05001KT 26/03 A2999 RMK A01 T02610027  RH  022%=      5-min Rain = 0
KAHS 242320Z 05004KT 26/03 A2999 RMK A01 T02610027  RH  022%=      5-min Rain = 0
KAHS 242321Z 05004KT 26/03 A2999 RMK A01 T02590027  RH  022%=      5-min Rain = 0
KAHS 242322Z 05003KT 26/02 A2999 RMK A01 T02570024  RH  022%=      5-min Rain = 0
KAHS 242323Z 05003KT 26/02 A2999 RMK A01 T02550021  RH  022%=      5-min Rain = 0
KAHS 242324Z 06002KT 26/03 A2999 RMK A01 T02550026  RH  022%=      5-min Rain = 0
KAHS 242325Z 03004KT 26/03 A2999 RMK A01 T02560028  RH  023%=      5-min Rain = 0
KAHS 242326Z 05005KT 26/03 A2999 RMK A01 T02560025  RH  022%=      5-min Rain = 0
KAHS 242327Z 06004KT 26/02 A2999 RMK A01 T02550024  RH  022%=      5-min Rain = 0
KAHS 242328Z 05003KT 26/03 A2999 RMK A01 T02550027  RH  023%=      5-min Rain = 0
KAHS 242329Z 04005KT 26/03 A2999 RMK A01 T02550028  RH  023%=      5-min Rain = 0
KAHS 242330Z 02005KT 26/03 A2999 RMK A01 T02560034  RH  024%=      5-min Rain = 0
KAHS 242331Z 01003KT 26/03 A2999 RMK A01 T02560032  RH  023%=      5-min Rain = 0
KAHS 242332Z 02002KT 26/03 A2999 RMK A01 T02560025  RH  022%=      5-min Rain = 0
KAHS 242333Z 32001KT 26/03 A2999 RMK A01 T02560027  RH  023%=      5-min Rain = 0
KAHS 242334Z 00002KT 26/03 A2999 RMK A01 T02570026  RH  022%=      5-min Rain = 0
KAHS 242335Z 36003KT 26/03 A2999 RMK A01 T02580032  RH  023%=      5-min Rain = 0
KAHS 242336Z 35005KT 26/03 A2999 RMK A01 T02580030  RH  023%=      5-min Rain = 0
KAHS 242337Z 01006KT 26/03 A2999 RMK A01 T02570028  RH  023%=      5-min Rain = 0
KAHS 242338Z 02006KT 26/03 A2999 RMK A01 T02550026  RH  023%=      5-min Rain = 0
KAHS 242339Z 04006KT 25/03 A2999 RMK A01 T02530029  RH  023%=      5-min Rain = 0
KAHS 242340Z 04005KT 25/03 A2999 RMK A01 T02510029  RH  024%=      5-min Rain = 0
KAHS 242341Z 05006KT 25/04 A2999 RMK A01 T02510035  RH  025%=      5-min Rain = 0
KAHS 242342Z 04003KT 25/03 A2999 RMK A01 T02510033  RH  024%=      5-min Rain = 0
KAHS 242343Z 04003KT 25/03 A2999 RMK A01 T02510032  RH  024%=      5-min Rain = 0
KAHS 242344Z 04004KT 25/03 A2999 RMK A01 T02520034  RH  024%=      5-min Rain = 0
KAHS 242345Z 04006KT 25/03 A2999 RMK A01 T02520028  RH  023%=      5-min Rain = 0
KAHS 242346Z 04006KT 25/03 A2999 RMK A01 T02520027  RH  023%=      5-min Rain = 0
KAHS 242347Z 03007KT 25/03 A2999 RMK A01 T02520028  RH  023%=      5-min Rain = 0
KAHS 242348Z 03006KT 25/02 A2999 RMK A01 T02520024  RH  023%=      5-min Rain = 0
KAHS 242349Z 04007KT 25/03 A2999 RMK A01 T02520027  RH  023%=      5-min Rain = 0
KAHS 242350Z 04006KT 25/03 A2999 RMK A01 T02520029  RH  024%=      5-min Rain = 0
KAHS 242351Z 04006KT 25/03 A2999 RMK A01 T02510028  RH  023%=      5-min Rain = 0
KAHS 242352Z 05007KT 25/03 A2999 RMK A01 T02510030  RH  024%=      5-min Rain = 0
KAHS 242353Z 05007KT 25/03 A2999 RMK A01 T02500026  RH  023%=      5-min Rain = 0
KAHS 242354Z 04007KT 25/03 A2999 RMK A01 T02500029  RH  024%=      5-min Rain = 0
KAHS 242355Z 04007KT 25/03 A2999 RMK A01 T02490027  RH  024%=      5-min Rain = 0
KAHS 242356Z 03006KT 25/03 A2999 RMK A01 T02490028  RH  024%=      5-min Rain = 0
KAHS 242357Z 04006KT 25/03 A2999 RMK A01 T02490029  RH  024%=      5-min Rain = 0
KAHS 242358Z 05006KT 25/03 A2999 RMK A01 T02490033  RH  025%=      5-min Rain = 0
KAHS 242359Z 04007KT 25/03 A2999 RMK A01 T02490028  RH  024%=      5-min Rain = 0
KAHS 250000Z 03007KT 25/03 A2999 RMK A01 T02480028  RH  024%=      5-min Rain = 0
KAHS 250001Z 02007KT 25/03 A2999 RMK A01 T02480027  RH  024%=      5-min Rain = 0
KAHS 250002Z 02007KT 25/03 A2999 RMK A01 T02470028  RH  024%=      5-min Rain = 0
KAHS 250003Z 02007KT 25/03 A2999 RMK A01 T02470026  RH  024%=      5-min Rain = 0
KAHS 250004Z 02007KT 25/03 A2999 RMK A01 T02460028  RH  024%=      5-min Rain = 0
KAHS 250005Z 03006KT 25/03 A2999 RMK A01 T02460030  RH  025%=      5-min Rain = 0
KAHS 250006Z 03006KT 25/03 A2999 RMK A01 T02460030  RH  024%=      5-min Rain = 0
KAHS 250007Z 03007KT 25/03 A30 RMK A01 T02460030  RH  025%=      5-min Rain = 0
KAHS 250008Z 03007KT 25/03 A30 RMK A01 T02450027  RH  024%=      5-min Rain = 0
KAHS 250009Z 03006KT 25/02 A30 RMK A01 T02450023  RH  023%=      5-min Rain = 0
KAHS 250010Z 03006KT 25/02 A30 RMK A01 T02450023  RH  023%=      5-min Rain = 0
KAHS 250011Z 04005KT 25/03 A30 RMK A01 T02450025  RH  024%=      5-min Rain = 0
KAHS 250012Z 04006KT 24/03 A30 RMK A01 T02440027  RH  024%=      5-min Rain = 0
KAHS 250013Z 03006KT 24/03 A30 RMK A01 T02440027  RH  024%=      5-min Rain = 0
KAHS 250014Z 03005KT 24/03 A30 RMK A01 T02430025  RH  024%=      5-min Rain = 0
KAHS 250015Z 04005KT 24/03 A30 RMK A01 T02430027  RH  024%=      5-min Rain = 0
KAHS 250016Z 03006KT 24/03 A30 RMK A01 T02430026  RH  024%=      5-min Rain = 0
KAHS 250017Z 03007KT 24/03 A30 RMK A01 T02420025  RH  024%=      5-min Rain = 0
KAHS 250018Z 03009KT 24/03 A30 RMK A01 T02420027  RH  025%=      5-min Rain = 0
KAHS 250019Z 04009KT 24/03 A30 RMK A01 T02410026  RH  025%=      5-min Rain = 0
KAHS 250020Z 03007KT 24/03 A30 RMK A01 T02400027  RH  025%=      5-min Rain = 0
KAHS 250021Z 04007KT 24/03 A30 RMK A01 T02390029  RH  025%=      5-min Rain = 0
KAHS 250022Z 03007KT 24/03 A30 RMK A01 T02380030  RH  026%=      5-min Rain = 0
KAHS 250023Z 04007KT 24/03 A30 RMK A01 T02380029  RH  026%=      5-min Rain = 0
KAHS 250024Z 04006KT 24/03 A30 RMK A01 T02370029  RH  026%=      5-min Rain = 0
KAHS 250025Z 04005KT 24/03 A30 RMK A01 T02370030  RH  026%=      5-min Rain = 0
KAHS 250026Z 04006KT 24/03 A30 RMK A01 T02360031  RH  026%=      5-min Rain = 0
KAHS 250027Z 04007KT 24/03 A30 RMK A01 T02350031  RH  026%=      5-min Rain = 0
KAHS 250028Z 04005KT 24/03 A30 RMK A01 T02350030  RH  026%=      5-min Rain = 0
KAHS 250029Z 04005KT 23/03 A30 RMK A01 T02340032  RH  027%=      5-min Rain = 0
KAHS 250030Z 04006KT 23/03 A30 RMK A01 T02330032  RH  027%=      5-min Rain = 0
KAHS 250031Z 04005KT 23/03 A30 RMK A01 T02330032  RH  027%=      5-min Rain = 0
KAHS 250032Z 04005KT 23/03 A30 RMK A01 T02320032  RH  027%=      5-min Rain = 0
KAHS 250033Z 04006KT 23/03 A30 RMK A01 T02310032  RH  027%=      5-min Rain = 0
KAHS 250034Z 04005KT 23/03 A30 RMK A01 T02300033  RH  027%=      5-min Rain = 0
KAHS 250035Z 04006KT 23/03 A30 RMK A01 T02290033  RH  028%=      5-min Rain = 0
KAHS 250036Z 04006KT 23/03 A30 RMK A01 T02290033  RH  028%=      5-min Rain = 0
KAHS 250037Z 04005KT 23/03 A30 RMK A01 T02280033  RH  028%=      5-min Rain = 0
KAHS 250038Z 04006KT 23/03 A30 RMK A01 T02270034  RH  028%=      5-min Rain = 0
KAHS 250039Z 04005KT 23/03 A30 RMK A01 T02260034  RH  028%=      5-min Rain = 0
KAHS 250040Z 04006KT 23/03 A30 RMK A01 T02260034  RH  028%=      5-min Rain = 0
KAHS 250041Z 04006KT 23/03 A30 RMK A01 T02250033  RH  028%=      5-min Rain = 0
KAHS 250042Z 04006KT 22/03 A30 RMK A01 T02240033  RH  028%=      5-min Rain = 0
KAHS 250043Z 04005KT 22/03 A30 RMK A01 T02240032  RH  028%=      5-min Rain = 0
KAHS 250044Z 04006KT 22/03 A30 RMK A01 T02230032  RH  029%=      5-min Rain = 0
KAHS 250045Z 04006KT 22/03 A30 RMK A01 T02220032  RH  029%=      5-min Rain = 0
KAHS 250046Z 04005KT 22/03 A30 RMK A01 T02210032  RH  029%=      5-min Rain = 0
KAHS 250047Z 04005KT 22/03 A30 RMK A01 T02200033  RH  029%=      5-min Rain = 0
KAHS 250048Z 05005KT 22/03 A30 RMK A01 T02190033  RH  029%=      5-min Rain = 0
KAHS 250049Z 05006KT 22/03 A30 RMK A01 T02180032  RH  029%=      5-min Rain = 0
KAHS 250050Z 05006KT 22/03 A30 RMK A01 T02170032  RH  029%=      5-min Rain = 0
KAHS 250051Z 05005KT 22/03 A30 RMK A01 T02160031  RH  030%=      5-min Rain = 0
KAHS 250052Z 05005KT 22/03 A30 RMK A01 T02160031  RH  030%=      5-min Rain = 0
KAHS 250053Z 05004KT 22/03 A30 RMK A01 T02150031  RH  030%=      5-min Rain = 0
KAHS 250054Z 05005KT 21/03 A30 RMK A01 T02140031  RH  030%=      5-min Rain = 0
KAHS 250055Z 05005KT 21/03 A30 RMK A01 T02130031  RH  030%=      5-min Rain = 0
KAHS 250056Z 05005KT 21/03 A30 RMK A01 T02120031  RH  030%=      5-min Rain = 0
KAHS 250057Z 05005KT 21/03 A30 RMK A01 T02110031  RH  030%=      5-min Rain = 0
KAHS 250058Z 05005KT 21/03 A30 RMK A01 T02100031  RH  031%=      5-min Rain = 0
KAHS 250059Z 05005KT 21/03 A30 RMK A01 T02090031  RH  031%=      5-min Rain = 0
KAHS 250100Z 05005KT 21/03 A30 RMK A01 T02090031  RH  031%=      5-min Rain = 0
KAHS 250101Z 06004KT 21/03 A30 RMK A01 T02090031  RH  031%=      5-min Rain = 0
KAHS 250102Z 06004KT 21/03 A30 RMK A01 T02080031  RH  031%=      5-min Rain = 0
KAHS 250103Z 06005KT 21/03 A30 RMK A01 T02070031  RH  031%=      5-min Rain = 0
KAHS 250104Z 06005KT 21/03 A30 RMK A01 T02070031  RH  031%=      5-min Rain = 0
KAHS 250105Z 06005KT 21/03 A30 RMK A01 T02070031  RH  031%=      5-min Rain = 0
KAHS 250106Z 06006KT 21/03 A30 RMK A01 T02060030  RH  031%=      5-min Rain = 0
KAHS 250107Z 06005KT 21/03 A30 RMK A01 T02060030  RH  031%=      5-min Rain = 0
KAHS 250108Z 05005KT 21/03 A30 RMK A01 T02050031  RH  032%=      5-min Rain = 0
KAHS 250109Z 05005KT 21/03 A30 RMK A01 T02050031  RH  032%=      5-min Rain = 0
KAHS 250110Z 05005KT 20/03 A30 RMK A01 T02040031  RH  032%=      5-min Rain = 0
KAHS 250111Z 04005KT 20/03 A30 RMK A01 T02030031  RH  032%=      5-min Rain = 0
KAHS 250112Z 04005KT 20/03 A30 RMK A01 T02020032  RH  032%=      5-min Rain = 0
KAHS 250113Z 05005KT 20/03 A30 RMK A01 T02010032  RH  033%=      5-min Rain = 0
KAHS 250114Z 05005KT 20/03 A30 RMK A01 T02010031  RH  033%=      5-min Rain = 0
KAHS 250115Z 05005KT 20/03 A30 RMK A01 T02000032  RH  033%=      5-min Rain = 0
KAHS 250116Z 06005KT 20/03 A3001 RMK A01 T01980032  RH  033%=      5-min Rain = 0
KAHS 250117Z 06005KT 20/03 A3001 RMK A01 T01980031  RH  033%=      5-min Rain = 0
KAHS 250118Z 06004KT 20/03 A3001 RMK A01 T01970030  RH  033%=      5-min Rain = 0
KAHS 250119Z 07005KT 20/03 A3001 RMK A01 T01970030  RH  033%=      5-min Rain = 0
KAHS 250120Z 06004KT 20/03 A3001 RMK A01 T01970029  RH  033%=      5-min Rain = 0
KAHS 250121Z 07005KT 20/03 A3001 RMK A01 T01970030  RH  033%=      5-min Rain = 0
KAHS 250122Z 06005KT 20/03 A3001 RMK A01 T01970029  RH  033%=      5-min Rain = 0
KAHS 250123Z 06005KT 20/03 A3001 RMK A01 T01970029  RH  033%=      5-min Rain = 0
KAHS 250124Z 06004KT 20/03 A3001 RMK A01 T01960029  RH  033%=      5-min Rain = 0
KAHS 250125Z 06005KT 20/03 A3001 RMK A01 T01960028  RH  033%=      5-min Rain = 0
KAHS 250126Z 06005KT 20/03 A3001 RMK A01 T01950028  RH  033%=      5-min Rain = 0
KAHS 250127Z 06005KT 20/03 A3001 RMK A01 T01950028  RH  033%=      5-min Rain = 0
KAHS 250128Z 07005KT 19/03 A3001 RMK A01 T01940028  RH  033%=      5-min Rain = 0
KAHS 250129Z 06005KT 19/03 A3001 RMK A01 T01940027  RH  033%=      5-min Rain = 0
KAHS 250130Z 06008KT 19/03 A3001 RMK A01 T01940027  RH  033%=      5-min Rain = 0
KAHS 250131Z 07011KT 20/03 A3001 RMK A01 T01950031  RH  034%=      5-min Rain = 0
KAHS 250132Z 07010KT 20/03 A3001 RMK A01 T01980034  RH  034%=      5-min Rain = 0
KAHS 250133Z 07009KT 20/04 A3001 RMK A01 T01980036  RH  034%=      5-min Rain = 0
KAHS 250134Z 07008KT 20/04 A3001 RMK A01 T01980036  RH  034%=      5-min Rain = 0
KAHS 250135Z 07006KT 20/04 A3001 RMK A01 T01980036  RH  034%=      5-min Rain = 0
KAHS 250136Z 06006KT 20/04 A3001 RMK A01 T01960037  RH  035%=      5-min Rain = 0
KAHS 250137Z 06006KT 19/04 A3001 RMK A01 T01940035  RH  035%=      5-min Rain = 0
KAHS 250138Z 06006KT 19/04 A3002 RMK A01 T01920035  RH  035%=      5-min Rain = 0
KAHS 250139Z 06006KT 19/04 A3002 RMK A01 T01900035  RH  036%=      5-min Rain = 0
KAHS 250140Z 07006KT 19/04 A3002 RMK A01 T01890035  RH  036%=      5-min Rain = 0
KAHS 250141Z 07006KT 19/04 A3002 RMK A01 T01880036  RH  036%=      5-min Rain = 0
KAHS 250142Z 08005KT 19/04 A3002 RMK A01 T01880037  RH  037%=      5-min Rain = 0
KAHS 250143Z 07005KT 19/04 A3002 RMK A01 T01880038  RH  037%=      5-min Rain = 0
KAHS 250144Z 07006KT 19/04 A3002 RMK A01 T01880039  RH  037%=      5-min Rain = 0
KAHS 250145Z 07006KT 19/04 A3002 RMK A01 T01880039  RH  037%=      5-min Rain = 0
KAHS 250146Z 08006KT 19/04 A3002 RMK A01 T01870040  RH  038%=      5-min Rain = 0
KAHS 250147Z 08006KT 19/04 A3002 RMK A01 T01870041  RH  038%=      5-min Rain = 0
KAHS 250148Z 08006KT 19/04 A3002 RMK A01 T01860042  RH  038%=      5-min Rain = 0
KAHS 250149Z 08006KT 19/04 A3002 RMK A01 T01850042  RH  039%=      5-min Rain = 0
KAHS 250150Z 08006KT 19/04 A3002 RMK A01 T01850042  RH  039%=      5-min Rain = 0
KAHS 250151Z 07006KT 18/04 A3002 RMK A01 T01840042  RH  039%=      5-min Rain = 0
KAHS 250152Z 08006KT 18/04 A3002 RMK A01 T01830043  RH  039%=      5-min Rain = 0
KAHS 250153Z 08006KT 18/04 A3002 RMK A01 T01830043  RH  040%=      5-min Rain = 0
KAHS 250154Z 08006KT 18/04 A3002 RMK A01 T01820043  RH  040%=      5-min Rain = 0
KAHS 250155Z 09006KT 18/04 A3002 RMK A01 T01820043  RH  040%=      5-min Rain = 0
KAHS 250156Z 09006KT 18/04 A3002 RMK A01 T01810042  RH  040%=      5-min Rain = 0
KAHS 250157Z 09006KT 18/04 A3002 RMK A01 T01800041  RH  040%=      5-min Rain = 0
KAHS 250158Z 09006KT 18/04 A3002 RMK A01 T01790040  RH  040%=      5-min Rain = 0
KAHS 250159Z 09006KT 18/04 A3002 RMK A01 T01790040  RH  040%=      5-min Rain = 0
KAHS 250200Z 08006KT 18/04 A3002 RMK A01 T01780040  RH  040%=      5-min Rain = 0
KAHS 250201Z 08005KT 18/04 A3003 RMK A01 T01770040  RH  040%=      5-min Rain = 0
KAHS 250202Z 08005KT 18/04 A3003 RMK A01 T01770041  RH  040%=      5-min Rain = 0
KAHS 250203Z 08005KT 18/04 A3003 RMK A01 T01770041  RH  040%=      5-min Rain = 0
KAHS 250204Z 08006KT 18/04 A3003 RMK A01 T01770042  RH  041%=      5-min Rain = 0
KAHS 250205Z 07007KT 18/04 A3003 RMK A01 T01770042  RH  041%=      5-min Rain = 0
KAHS 250206Z 07006KT 18/04 A3003 RMK A01 T01770043  RH  041%=      5-min Rain = 0
KAHS 250207Z 07006KT 18/04 A3003 RMK A01 T01770043  RH  041%=      5-min Rain = 0
KAHS 250208Z 07006KT 18/04 A3003 RMK A01 T01760044  RH  042%=      5-min Rain = 0
KAHS 250209Z 08006KT 18/04 A3003 RMK A01 T01750044  RH  042%=      5-min Rain = 0
KAHS 250210Z 07005KT 18/05 A3003 RMK A01 T01750045  RH  042%=      5-min Rain = 0
KAHS 250211Z 07006KT 18/05 A3003 RMK A01 T01750045  RH  042%=      5-min Rain = 0
KAHS 250212Z 08005KT 17/05 A3003 RMK A01 T01740046  RH  043%=      5-min Rain = 0
KAHS 250213Z 07005KT 17/05 A3003 RMK A01 T01740046  RH  043%=      5-min Rain = 0
KAHS 250214Z 07005KT 17/05 A3003 RMK A01 T01740045  RH  043%=      5-min Rain = 0
KAHS 250215Z 07005KT 17/05 A3003 RMK A01 T01730045  RH  043%=      5-min Rain = 0
KAHS 250216Z 07005KT 17/05 A3003 RMK A01 T01730045  RH  043%=      5-min Rain = 0
KAHS 250217Z 07005KT 17/05 A3003 RMK A01 T01720046  RH  043%=      5-min Rain = 0
KAHS 250218Z 07005KT 17/05 A3004 RMK A01 T01720046  RH  043%=      5-min Rain = 0
KAHS 250219Z 07005KT 17/05 A3004 RMK A01 T01710046  RH  044%=      5-min Rain = 0
KAHS 250220Z 07005KT 17/05 A3004 RMK A01 T01710046  RH  044%=      5-min Rain = 0
KAHS 250221Z 08005KT 17/05 A3004 RMK A01 T01700046  RH  044%=      5-min Rain = 0
KAHS 250222Z 08005KT 17/05 A3004 RMK A01 T01700047  RH  044%=      5-min Rain = 0
KAHS 250223Z 08006KT 17/05 A3004 RMK A01 T01700049  RH  045%=      5-min Rain = 0
KAHS 250224Z 08006KT 17/05 A3004 RMK A01 T01700050  RH  045%=      5-min Rain = 0
KAHS 250225Z 08006KT 17/05 A3004 RMK A01 T01700051  RH  045%=      5-min Rain = 0
KAHS 250226Z 08006KT 17/05 A3004 RMK A01 T01700052  RH  046%=      5-min Rain = 0
KAHS 250227Z 08006KT 17/05 A3004 RMK A01 T01690051  RH  046%=      5-min Rain = 0
KAHS 250228Z 08006KT 17/05 A3004 RMK A01 T01690052  RH  046%=      5-min Rain = 0
KAHS 250229Z 07006KT 17/05 A3004 RMK A01 T01690052  RH  046%=      5-min Rain = 0
KAHS 250230Z 07006KT 17/05 A3004 RMK A01 T01690051  RH  046%=      5-min Rain = 0
KAHS 250231Z 07006KT 17/05 A3004 RMK A01 T01690052  RH  046%=      5-min Rain = 0
KAHS 250232Z 07006KT 17/05 A3004 RMK A01 T01680052  RH  046%=      5-min Rain = 0
KAHS 250233Z 07006KT 17/05 A3004 RMK A01 T01680053  RH  047%=      5-min Rain = 0
KAHS 250234Z 08006KT 17/05 A3004 RMK A01 T01680053  RH  047%=      5-min Rain = 0
KAHS 250235Z 08006KT 17/05 A3004 RMK A01 T01670054  RH  047%=      5-min Rain = 0
KAHS 250236Z 08006KT 17/06 A3004 RMK A01 T01670055  RH  047%=      5-min Rain = 0
KAHS 250237Z 08006KT 17/06 A3004 RMK A01 T01670055  RH  048%=      5-min Rain = 0
KAHS 250238Z 08006KT 17/06 A3004 RMK A01 T01670056  RH  048%=      5-min Rain = 0
KAHS 250239Z 07006KT 17/06 A3004 RMK A01 T01660056  RH  048%=      5-min Rain = 0
KAHS 250240Z 07005KT 17/06 A3004 RMK A01 T01660056  RH  048%=      5-min Rain = 0
KAHS 250241Z 07005KT 17/06 A3004 RMK A01 T01660056  RH  048%=      5-min Rain = 0
KAHS 250242Z 06005KT 17/06 A3005 RMK A01 T01650056  RH  048%=      5-min Rain = 0
KAHS 250243Z 07005KT 17/06 A3005 RMK A01 T01650056  RH  049%=      5-min Rain = 0
KAHS 250244Z 07005KT 16/06 A3005 RMK A01 T01640056  RH  049%=      5-min Rain = 0
KAHS 250245Z 07005KT 16/06 A3005 RMK A01 T01640056  RH  049%=      5-min Rain = 0
KAHS 250246Z 07004KT 16/06 A3005 RMK A01 T01630056  RH  049%=      5-min Rain = 0
KAHS 250247Z 07004KT 16/06 A3005 RMK A01 T01630056  RH  049%=      5-min Rain = 0
KAHS 250248Z 07004KT 16/06 A3005 RMK A01 T01630056  RH  049%=      5-min Rain = 0
KAHS 250249Z 07004KT 16/06 A3005 RMK A01 T01620055  RH  049%=      5-min Rain = 0
KAHS 250250Z 07004KT 16/06 A3005 RMK A01 T01620055  RH  049%=      5-min Rain = 0
KAHS 250251Z 08005KT 16/06 A3005 RMK A01 T01620055  RH  049%=      5-min Rain = 0
KAHS 250252Z 08005KT 16/06 A3005 RMK A01 T01610055  RH  049%=      5-min Rain = 0
KAHS 250253Z 08004KT 16/06 A3005 RMK A01 T01610056  RH  049%=      5-min Rain = 0
KAHS 250254Z 08004KT 16/06 A3005 RMK A01 T01610056  RH  050%=      5-min Rain = 0
KAHS 250255Z 09004KT 16/06 A3005 RMK A01 T01610056  RH  050%=      5-min Rain = 0
KAHS 250256Z 09005KT 16/06 A3005 RMK A01 T01600056  RH  050%=      5-min Rain = 0
KAHS 250257Z 09005KT 16/06 A3005 RMK A01 T01600056  RH  050%=      5-min Rain = 0
KAHS 250258Z 09005KT 16/06 A3005 RMK A01 T01600056  RH  050%=      5-min Rain = 0
KAHS 250259Z 09005KT 16/06 A3005 RMK A01 T01590056  RH  050%=      5-min Rain = 0
KAHS 250300Z 09004KT 16/06 A3005 RMK A01 T01580056  RH  050%=      5-min Rain = 0
KAHS 250301Z 09004KT 16/06 A3005 RMK A01 T01580055  RH  050%=      5-min Rain = 0
KAHS 250302Z 09004KT 16/06 A3005 RMK A01 T01580055  RH  050%=      5-min Rain = 0
KAHS 250303Z 08004KT 16/06 A3005 RMK A01 T01570055  RH  051%=      5-min Rain = 0
KAHS 250304Z 09004KT 16/06 A3006 RMK A01 T01570055  RH  051%=      5-min Rain = 0
KAHS 250305Z 08004KT 16/06 A3006 RMK A01 T01570056  RH  051%=      5-min Rain = 0
KAHS 250306Z 08004KT 16/06 A3006 RMK A01 T01570057  RH  051%=      5-min Rain = 0
KAHS 250307Z 08004KT 16/06 A3006 RMK A01 T01560056  RH  051%=      5-min Rain = 0
KAHS 250308Z 08004KT 16/06 A3006 RMK A01 T01560056  RH  052%=      5-min Rain = 0
KAHS 250309Z 08004KT 16/06 A3006 RMK A01 T01550057  RH  052%=      5-min Rain = 0
KAHS 250310Z 08004KT 16/06 A3006 RMK A01 T01550057  RH  052%=      5-min Rain = 0
KAHS 250311Z 08004KT 16/06 A3006 RMK A01 T01550057  RH  052%=      5-min Rain = 0
KAHS 250312Z 08004KT 15/06 A3006 RMK A01 T01540057  RH  052%=      5-min Rain = 0
KAHS 250313Z 08004KT 15/06 A3006 RMK A01 T01540057  RH  052%=      5-min Rain = 0
KAHS 250314Z 08004KT 15/06 A3006 RMK A01 T01540057  RH  052%=      5-min Rain = 0
KAHS 250315Z 08004KT 15/06 A3006 RMK A01 T01540057  RH  053%=      5-min Rain = 0
KAHS 250316Z 08004KT 15/06 A3006 RMK A01 T01530057  RH  053%=      5-min Rain = 0
KAHS 250317Z 07004KT 15/06 A3006 RMK A01 T01520057  RH  053%=      5-min Rain = 0
KAHS 250318Z 08004KT 15/06 A3007 RMK A01 T01520057  RH  053%=      5-min Rain = 0
KAHS 250319Z 08004KT 15/06 A3006 RMK A01 T01520057  RH  053%=      5-min Rain = 0
KAHS 250320Z 08004KT 15/06 A3006 RMK A01 T01520057  RH  053%=      5-min Rain = 0
KAHS 250321Z 09004KT 15/06 A3006 RMK A01 T01520058  RH  053%=      5-min Rain = 0
KAHS 250322Z 08004KT 15/06 A3006 RMK A01 T01510058  RH  054%=      5-min Rain = 0
KAHS 250323Z 08004KT 15/06 A3006 RMK A01 T01510058  RH  054%=      5-min Rain = 0
KAHS 250324Z 09004KT 15/06 A3007 RMK A01 T01510058  RH  054%=      5-min Rain = 0
KAHS 250325Z 09004KT 15/06 A3007 RMK A01 T01510058  RH  054%=      5-min Rain = 0
KAHS 250326Z 10004KT 15/06 A3007 RMK A01 T01500058  RH  054%=      5-min Rain = 0
KAHS 250327Z 10005KT 15/06 A3007 RMK A01 T01510058  RH  054%=      5-min Rain = 0
KAHS 250328Z 10005KT 15/06 A3007 RMK A01 T01500058  RH  054%=      5-min Rain = 0
KAHS 250329Z 10005KT 15/06 A3007 RMK A01 T01500058  RH  054%=      5-min Rain = 0
KAHS 250330Z 10006KT 15/06 A3007 RMK A01 T01500057  RH  054%=      5-min Rain = 0
KAHS 250331Z 10005KT 15/06 A3007 RMK A01 T01520058  RH  053%=      5-min Rain = 0
KAHS 250332Z 10005KT 15/06 A3007 RMK A01 T01520057  RH  053%=      5-min Rain = 0
KAHS 250333Z 10004KT 15/06 A3007 RMK A01 T01510057  RH  053%=      5-min Rain = 0
KAHS 250334Z 10005KT 15/06 A3007 RMK A01 T01500056  RH  053%=      5-min Rain = 0
KAHS 250335Z 10005KT 15/06 A3007 RMK A01 T01500056  RH  054%=      5-min Rain = 0
KAHS 250336Z 10005KT 15/06 A3007 RMK A01 T01500057  RH  054%=      5-min Rain = 0
KAHS 250337Z 10005KT 15/06 A3007 RMK A01 T01500057  RH  054%=      5-min Rain = 0
KAHS 250338Z 09005KT 15/06 A3007 RMK A01 T01500057  RH  054%=      5-min Rain = 0
KAHS 250339Z 09005KT 15/06 A3007 RMK A01 T01490057  RH  054%=      5-min Rain = 0
KAHS 250340Z 09005KT 15/06 A3007 RMK A01 T01490057  RH  054%=      5-min Rain = 0
KAHS 250341Z 09005KT 15/06 A3007 RMK A01 T01490057  RH  054%=      5-min Rain = 0
KAHS 250342Z 09005KT 15/06 A3007 RMK A01 T01490057  RH  054%=      5-min Rain = 0
KAHS 250343Z 09005KT 15/06 A3007 RMK A01 T01490057  RH  054%=      5-min Rain = 0
KAHS 250344Z 09005KT 15/06 A3007 RMK A01 T01490058  RH  054%=      5-min Rain = 0
KAHS 250345Z 10005KT 15/06 A3007 RMK A01 T01480057  RH  054%=      5-min Rain = 0
KAHS 250346Z 10006KT 15/06 A3007 RMK A01 T01480057  RH  054%=      5-min Rain = 0
KAHS 250347Z 10006KT 15/06 A3007 RMK A01 T01480057  RH  054%=      5-min Rain = 0
KAHS 250348Z 10006KT 15/06 A3008 RMK A01 T01490057  RH  054%=      5-min Rain = 0
KAHS 250349Z 10006KT 15/06 A3008 RMK A01 T01500057  RH  054%=      5-min Rain = 0
KAHS 250350Z 10006KT 15/06 A3008 RMK A01 T01500057  RH  054%=      5-min Rain = 0
KAHS 250351Z 11006KT 15/06 A3008 RMK A01 T01510057  RH  054%=      5-min Rain = 0
KAHS 250352Z 10006KT 15/06 A3008 RMK A01 T01510057  RH  053%=      5-min Rain = 0
KAHS 250353Z 10006KT 15/06 A3008 RMK A01 T01510057  RH  053%=      5-min Rain = 0
KAHS 250354Z 10006KT 15/06 A3008 RMK A01 T01510057  RH  054%=      5-min Rain = 0
KAHS 250355Z 10006KT 15/06 A3008 RMK A01 T01510057  RH  054%=      5-min Rain = 0
KAHS 250356Z 10006KT 15/06 A3008 RMK A01 T01500057  RH  054%=      5-min Rain = 0
KAHS 250357Z 10007KT 15/06 A3008 RMK A01 T01500057  RH  054%=      5-min Rain = 0
KAHS 250358Z 10007KT 15/06 A3008 RMK A01 T01500057  RH  054%=      5-min Rain = 0
KAHS 250359Z 09006KT 15/06 A3008 RMK A01 T01500058  RH  054%=      5-min Rain = 0
KAHS 250400Z 09006KT 15/06 A3008 RMK A01 T01500057  RH  054%=      5-min Rain = 0
KAHS 250401Z 09006KT 15/06 A3008 RMK A01 T01490058  RH  054%=      5-min Rain = 0
KAHS 250402Z 09007KT 15/06 A3008 RMK A01 T01480058  RH  055%=      5-min Rain = 0
KAHS 250403Z 10007KT 15/06 A3008 RMK A01 T01480058  RH  055%=      5-min Rain = 0
KAHS 250404Z 10007KT 15/06 A3008 RMK A01 T01480058  RH  055%=      5-min Rain = 0
KAHS 250405Z 09006KT 15/06 A3008 RMK A01 T01480058  RH  055%=      5-min Rain = 0
KAHS 250406Z 09006KT 15/06 A3008 RMK A01 T01480058  RH  055%=      5-min Rain = 0
KAHS 250407Z 09006KT 15/06 A3008 RMK A01 T01480058  RH  055%=      5-min Rain = 0
KAHS 250408Z 09007KT 15/06 A3008 RMK A01 T01470058  RH  055%=      5-min Rain = 0
KAHS 250409Z 09006KT 15/06 A3008 RMK A01 T01470058  RH  055%=      5-min Rain = 0
KAHS 250410Z 09006KT 15/06 A3008 RMK A01 T01470058  RH  055%=      5-min Rain = 0
KAHS 250411Z 09007KT 15/06 A3008 RMK A01 T01470058  RH  055%=      5-min Rain = 0
KAHS 250412Z 09007KT 15/06 A3008 RMK A01 T01470058  RH  055%=      5-min Rain = 0
KAHS 250413Z 09007KT 15/06 A3008 RMK A01 T01470059  RH  055%=      5-min Rain = 0
KAHS 250414Z 09007KT 15/06 A3008 RMK A01 T01470059  RH  055%=      5-min Rain = 0
KAHS 250415Z 09007KT 15/06 A3008 RMK A01 T01470059  RH  056%=      5-min Rain = 0
KAHS 250416Z 09007KT 15/06 A3008 RMK A01 T01460059  RH  056%=      5-min Rain = 0
KAHS 250417Z 09007KT 15/06 A3008 RMK A01 T01460059  RH  056%=      5-min Rain = 0
KAHS 250418Z 09007KT 15/06 A3008 RMK A01 T01460059  RH  056%=      5-min Rain = 0
KAHS 250419Z 09008KT 15/06 A3008 RMK A01 T01450059  RH  056%=      5-min Rain = 0
KAHS 250420Z 09008KT 15/06 A3008 RMK A01 T01450059  RH  056%=      5-min Rain = 0
KAHS 250421Z 09007KT 15/06 A3008 RMK A01 T01450059  RH  056%=      5-min Rain = 0
KAHS 250422Z 09007KT 15/06 A3008 RMK A01 T01450059  RH  056%=      5-min Rain = 0
KAHS 250423Z 09008KT 14/06 A3008 RMK A01 T01440059  RH  056%=      5-min Rain = 0
KAHS 250424Z 09007KT 14/06 A3008 RMK A01 T01440059  RH  056%=      5-min Rain = 0
KAHS 250425Z 09007KT 14/06 A3008 RMK A01 T01440059  RH  056%=      5-min Rain = 0
KAHS 250426Z 09007KT 14/06 A3008 RMK A01 T01440058  RH  056%=      5-min Rain = 0
KAHS 250427Z 09007KT 14/06 A3008 RMK A01 T01430059  RH  057%=      5-min Rain = 0
KAHS 250428Z 09006KT 14/06 A3008 RMK A01 T01430058  RH  057%=      5-min Rain = 0
KAHS 250429Z 09007KT 14/06 A3008 RMK A01 T01430059  RH  057%=      5-min Rain = 0
KAHS 250430Z 09007KT 14/06 A3008 RMK A01 T01430059  RH  057%=      5-min Rain = 0
KAHS 250431Z 09007KT 14/06 A3008 RMK A01 T01430059  RH  057%=      5-min Rain = 0
KAHS 250432Z 10006KT 14/06 A3008 RMK A01 T01430059  RH  057%=      5-min Rain = 0
KAHS 250433Z 10007KT 14/06 A3008 RMK A01 T01430059  RH  057%=      5-min Rain = 0
KAHS 250434Z 10007KT 14/06 A3008 RMK A01 T01430059  RH  057%=      5-min Rain = 0
KAHS 250435Z 10006KT 14/06 A3009 RMK A01 T01430059  RH  057%=      5-min Rain = 0
KAHS 250436Z 10006KT 14/06 A3009 RMK A01 T01430059  RH  057%=      5-min Rain = 0
KAHS 250437Z 10006KT 14/06 A3009 RMK A01 T01440060  RH  057%=      5-min Rain = 0
KAHS 250438Z 09006KT 15/06 A3009 RMK A01 T01450060  RH  057%=      5-min Rain = 0
KAHS 250439Z 09006KT 15/06 A3009 RMK A01 T01450060  RH  056%=      5-min Rain = 0
KAHS 250440Z 09006KT 15/06 A3009 RMK A01 T01450059  RH  057%=      5-min Rain = 0
KAHS 250441Z 09006KT 14/06 A3009 RMK A01 T01440059  RH  057%=      5-min Rain = 0
KAHS 250442Z 09006KT 14/06 A3009 RMK A01 T01440060  RH  057%=      5-min Rain = 0
KAHS 250443Z 10006KT 14/06 A3009 RMK A01 T01430059  RH  057%=      5-min Rain = 0
KAHS 250444Z 10006KT 14/06 A3009 RMK A01 T01420059  RH  057%=      5-min Rain = 0
KAHS 250445Z 09006KT 14/06 A3009 RMK A01 T01420059  RH  057%=      5-min Rain = 0
KAHS 250446Z 09006KT 14/06 A3009 RMK A01 T01420059  RH  057%=      5-min Rain = 0
KAHS 250447Z 09007KT 14/06 A3009 RMK A01 T01410059  RH  058%=      5-min Rain = 0
KAHS 250448Z 09006KT 14/06 A3009 RMK A01 T01410060  RH  058%=      5-min Rain = 0
KAHS 250449Z 09006KT 14/06 A3009 RMK A01 T01410060  RH  058%=      5-min Rain = 0
KAHS 250450Z 09007KT 14/06 A3009 RMK A01 T01410061  RH  058%=      5-min Rain = 0
KAHS 250451Z 09007KT 14/06 A3009 RMK A01 T01430061  RH  058%=      5-min Rain = 0
KAHS 250452Z 09006KT 14/06 A3009 RMK A01 T01440061  RH  057%=      5-min Rain = 0
KAHS 250453Z 09006KT 14/06 A3009 RMK A01 T01440061  RH  058%=      5-min Rain = 0
KAHS 250454Z 09006KT 14/06 A3009 RMK A01 T01430061  RH  058%=      5-min Rain = 0
KAHS 250455Z 09006KT 14/06 A3009 RMK A01 T01440061  RH  058%=      5-min Rain = 0
KAHS 250456Z 09006KT 14/06 A3009 RMK A01 T01440061  RH  058%=      5-min Rain = 0
KAHS 250457Z 09006KT 14/06 A3009 RMK A01 T01430061  RH  058%=      5-min Rain = 0
KAHS 250458Z 09006KT 14/06 A3009 RMK A01 T01430061  RH  058%=      5-min Rain = 0
KAHS 250459Z 09006KT 14/06 A3009 RMK A01 T01430061  RH  058%=      5-min Rain = 0

Page generated in 0.128 seconds.